Observation data for Caprock Canyons on 04/08/2021      Previous  Date  Next       Current Mesonet Observations  Soil Data  Daily Summary Page  Observations in Plain Language
KQU1 080500Z 29003KT 10/M02 A2993 RMK A01 T01041018  RH  042%=      5-min Rain = 0
KQU1 080501Z 29003KT 10/M02 A2993 RMK A01 T01031018  RH  043%=      5-min Rain = 0
KQU1 080502Z 29003KT 10/M02 A2993 RMK A01 T01031020  RH  042%=      5-min Rain = 0
KQU1 080503Z 28003KT 10/M02 A2993 RMK A01 T01021020  RH  042%=      5-min Rain = 0
KQU1 080504Z 28002KT 10/M02 A2993 RMK A01 T01021020  RH  043%=      5-min Rain = 0
KQU1 080505Z 28002KT 10/M02 A2993 RMK A01 T01021020  RH  043%=      5-min Rain = 0
KQU1 080506Z 29002KT 10/M02 A2993 RMK A01 T01011020  RH  043%=      5-min Rain = 0
KQU1 080507Z 29003KT 10/M02 A2993 RMK A01 T01001020  RH  043%=      5-min Rain = 0
KQU1 080508Z 30003KT 10/M02 A2993 RMK A01 T00991020  RH  043%=      5-min Rain = 0
KQU1 080509Z 30003KT 10/M02 A2993 RMK A01 T00981020  RH  044%=      5-min Rain = 0
KQU1 080510Z 30002KT 10/M02 A2993 RMK A01 T00961020  RH  044%=      5-min Rain = 0
KQU1 080511Z 30003KT 10/M02 A2993 RMK A01 T00951019  RH  045%=      5-min Rain = 0
KQU1 080512Z 30003KT 10/M02 A2993 RMK A01 T00951019  RH  045%=      5-min Rain = 0
KQU1 080513Z 31004KT 09/M02 A2993 RMK A01 T00941019  RH  045%=      5-min Rain = 0
KQU1 080514Z 31004KT 09/M02 A2993 RMK A01 T00941018  RH  046%=      5-min Rain = 0
KQU1 080515Z 31004KT 09/M02 A2993 RMK A01 T00941016  RH  046%=      5-min Rain = 0
KQU1 080516Z 31004KT 09/M02 A2993 RMK A01 T00941018  RH  045%=      5-min Rain = 0
KQU1 080517Z 31004KT 10/M02 A2993 RMK A01 T00951019  RH  045%=      5-min Rain = 0
KQU1 080518Z 31004KT 10/M02 A2993 RMK A01 T00951019  RH  045%=      5-min Rain = 0
KQU1 080519Z 31004KT 10/M02 A2993 RMK A01 T00951019  RH  045%=      5-min Rain = 0
KQU1 080520Z 31004KT 10/M02 A2993 RMK A01 T00951019  RH  045%=      5-min Rain = 0
KQU1 080521Z 31004KT 10/M02 A2993 RMK A01 T00951019  RH  045%=      5-min Rain = 0
KQU1 080522Z 32005KT 10/M02 A2993 RMK A01 T00951018  RH  045%=      5-min Rain = 0
KQU1 080523Z 32005KT 10/M02 A2993 RMK A01 T00951018  RH  045%=      5-min Rain = 0
KQU1 080524Z 32005KT 10/M02 A2993 RMK A01 T00951018  RH  045%=      5-min Rain = 0
KQU1 080525Z 32004KT 10/M02 A2993 RMK A01 T00951018  RH  045%=      5-min Rain = 0
KQU1 080526Z 33004KT 10/M02 A2993 RMK A01 T00951018  RH  045%=      5-min Rain = 0
KQU1 080527Z 33004KT 10/M02 A2993 RMK A01 T00951017  RH  045%=      5-min Rain = 0
KQU1 080528Z 32004KT 10/M02 A2993 RMK A01 T00951017  RH  045%=      5-min Rain = 0
KQU1 080529Z 32004KT 10/M02 A2993 RMK A01 T00951017  RH  045%=      5-min Rain = 0
KQU1 080530Z 32004KT 10/M02 A2993 RMK A01 T00951017  RH  045%=      5-min Rain = 0
KQU1 080531Z 32004KT 10/M02 A2993 RMK A01 T00951017  RH  045%=      5-min Rain = 0
KQU1 080532Z 32005KT 10/M02 A2993 RMK A01 T00951018  RH  045%=      5-min Rain = 0
KQU1 080533Z 32005KT 09/M02 A2993 RMK A01 T00931018  RH  046%=      5-min Rain = 0
KQU1 080534Z 32005KT 09/M02 A2993 RMK A01 T00921016  RH  047%=      5-min Rain = 0
KQU1 080535Z 33006KT 09/M02 A2993 RMK A01 T00911016  RH  047%=      5-min Rain = 0
KQU1 080536Z 33005KT 09/M02 A2993 RMK A01 T00911016  RH  047%=      5-min Rain = 0
KQU1 080537Z 32005KT 09/M02 A2993 RMK A01 T00911017  RH  047%=      5-min Rain = 0
KQU1 080538Z 32004KT 09/M02 A2993 RMK A01 T00911017  RH  047%=      5-min Rain = 0
KQU1 080539Z 32004KT 09/M02 A2993 RMK A01 T00921017  RH  046%=      5-min Rain = 0
KQU1 080540Z 31004KT 09/M02 A2993 RMK A01 T00931017  RH  046%=      5-min Rain = 0
KQU1 080541Z 31004KT 09/M02 A2993 RMK A01 T00941017  RH  046%=      5-min Rain = 0
KQU1 080542Z 31004KT 10/M02 A2993 RMK A01 T00951017  RH  045%=      5-min Rain = 0
KQU1 080543Z 32005KT 10/M02 A2993 RMK A01 T00951017  RH  045%=      5-min Rain = 0
KQU1 080544Z 31004KT 09/M02 A2993 RMK A01 T00941016  RH  046%=      5-min Rain = 0
KQU1 080545Z 32004KT 09/M02 A2993 RMK A01 T00931018  RH  046%=      5-min Rain = 0
KQU1 080546Z 32004KT 09/M02 A2993 RMK A01 T00911018  RH  046%=      5-min Rain = 0
KQU1 080547Z 31004KT 09/M02 A2993 RMK A01 T00901017  RH  047%=      5-min Rain = 0
KQU1 080548Z 31004KT 09/M02 A2993 RMK A01 T00901017  RH  047%=      5-min Rain = 0
KQU1 080549Z 31004KT 09/M02 A2993 RMK A01 T00901016  RH  047%=      5-min Rain = 0
KQU1 080550Z 30004KT 09/M02 A2993 RMK A01 T00911015  RH  047%=      5-min Rain = 0
KQU1 080551Z 30004KT 09/M02 A2993 RMK A01 T00921015  RH  047%=      5-min Rain = 0
KQU1 080552Z 31004KT 09/M02 A2993 RMK A01 T00941015  RH  047%=      5-min Rain = 0
KQU1 080553Z 31004KT 09/M01 A2993 RMK A01 T00941014  RH  047%=      5-min Rain = 0
KQU1 080554Z 32006KT 09/M02 A2993 RMK A01 T00941015  RH  046%=      5-min Rain = 0
KQU1 080555Z 31005KT 09/M02 A2993 RMK A01 T00921016  RH  047%=      5-min Rain = 0
KQU1 080556Z 31005KT 09/M02 A2993 RMK A01 T00911015  RH  047%=      5-min Rain = 0
KQU1 080557Z 31005KT 09/M02 A2993 RMK A01 T00901015  RH  048%=      5-min Rain = 0
KQU1 080558Z 31004KT 09/M02 A2993 RMK A01 T00901015  RH  048%=      5-min Rain = 0
KQU1 080559Z 31003KT 09/M02 A2993 RMK A01 T00911015  RH  047%=      5-min Rain = 0
KQU1 080600Z 31003KT 09/M02 A2993 RMK A01 T00911015  RH  048%=      5-min Rain = 0
KQU1 080601Z 31003KT 09/M01 A2993 RMK A01 T00921014  RH  048%=      5-min Rain = 0
KQU1 080602Z 30002KT 09/M01 A2993 RMK A01 T00921013  RH  048%=      5-min Rain = 0
KQU1 080603Z 31004KT 09/M01 A2993 RMK A01 T00921013  RH  048%=      5-min Rain = 0
KQU1 080604Z 31005KT 09/M02 A2993 RMK A01 T00911015  RH  047%=      5-min Rain = 0
KQU1 080605Z 32006KT 09/M02 A2993 RMK A01 T00891015  RH  048%=      5-min Rain = 0
KQU1 080606Z 31004KT 09/M02 A2993 RMK A01 T00881015  RH  048%=      5-min Rain = 0
KQU1 080607Z 31004KT 09/M01 A2993 RMK A01 T00881014  RH  049%=      5-min Rain = 0
KQU1 080608Z 31004KT 09/M01 A2993 RMK A01 T00881014  RH  049%=      5-min Rain = 0
KQU1 080609Z 31004KT 09/M01 A2993 RMK A01 T00891014  RH  048%=      5-min Rain = 0
KQU1 080610Z 31004KT 09/M01 A2993 RMK A01 T00891014  RH  048%=      5-min Rain = 0
KQU1 080611Z 31003KT 09/M01 A2993 RMK A01 T00881014  RH  048%=      5-min Rain = 0
KQU1 080612Z 31003KT 09/M01 A2993 RMK A01 T00881014  RH  049%=      5-min Rain = 0
KQU1 080613Z 30003KT 09/M01 A2993 RMK A01 T00881014  RH  049%=      5-min Rain = 0
KQU1 080614Z 30003KT 09/M01 A2993 RMK A01 T00881014  RH  049%=      5-min Rain = 0
KQU1 080615Z 30002KT 09/M01 A2993 RMK A01 T00881014  RH  049%=      5-min Rain = 0
KQU1 080616Z 30003KT 09/M01 A2993 RMK A01 T00881013  RH  049%=      5-min Rain = 0
KQU1 080617Z 30004KT 09/M01 A2993 RMK A01 T00871013  RH  049%=      5-min Rain = 0
KQU1 080618Z 30005KT 09/M01 A2993 RMK A01 T00871014  RH  049%=      5-min Rain = 0
KQU1 080619Z 31005KT 09/M01 A2993 RMK A01 T00861014  RH  050%=      5-min Rain = 0
KQU1 080620Z 31005KT 09/M01 A2993 RMK A01 T00851014  RH  050%=      5-min Rain = 0
KQU1 080621Z 31004KT 09/M01 A2993 RMK A01 T00851013  RH  050%=      5-min Rain = 0
KQU1 080622Z 31004KT 09/M01 A2993 RMK A01 T00851013  RH  050%=      5-min Rain = 0
KQU1 080623Z 31003KT 09/M01 A2993 RMK A01 T00851013  RH  050%=      5-min Rain = 0
KQU1 080624Z 31003KT 09/M01 A2993 RMK A01 T00851013  RH  050%=      5-min Rain = 0
KQU1 080625Z 31003KT 09/M01 A2993 RMK A01 T00851013  RH  050%=      5-min Rain = 0
KQU1 080626Z 30003KT 09/M01 A2993 RMK A01 T00851013  RH  050%=      5-min Rain = 0
KQU1 080627Z 30003KT 09/M01 A2993 RMK A01 T00851013  RH  050%=      5-min Rain = 0
KQU1 080628Z 30004KT 09/M01 A2993 RMK A01 T00851013  RH  050%=      5-min Rain = 0
KQU1 080629Z 30004KT 08/M01 A2993 RMK A01 T00841013  RH  050%=      5-min Rain = 0
KQU1 080630Z 30004KT 08/M01 A2993 RMK A01 T00841013  RH  050%=      5-min Rain = 0
KQU1 080631Z 30004KT 08/M01 A2993 RMK A01 T00841013  RH  050%=      5-min Rain = 0
KQU1 080632Z 30004KT 08/M01 A2993 RMK A01 T00831013  RH  051%=      5-min Rain = 0
KQU1 080633Z 30005KT 08/M01 A2993 RMK A01 T00831013  RH  051%=      5-min Rain = 0
KQU1 080634Z 30005KT 08/M01 A2993 RMK A01 T00831013  RH  051%=      5-min Rain = 0
KQU1 080635Z 30005KT 08/M01 A2993 RMK A01 T00831012  RH  051%=      5-min Rain = 0
KQU1 080636Z 31005KT 08/M01 A2993 RMK A01 T00831012  RH  051%=      5-min Rain = 0
KQU1 080637Z 31005KT 08/M01 A2993 RMK A01 T00831012  RH  051%=      5-min Rain = 0
KQU1 080638Z 30005KT 08/M01 A2993 RMK A01 T00841012  RH  051%=      5-min Rain = 0
KQU1 080639Z 31005KT 08/M01 A2993 RMK A01 T00831012  RH  051%=      5-min Rain = 0
KQU1 080640Z 30005KT 08/M01 A2993 RMK A01 T00841013  RH  051%=      5-min Rain = 0
KQU1 080641Z 30005KT 08/M01 A2993 RMK A01 T00841013  RH  051%=      5-min Rain = 0
KQU1 080642Z 30004KT 08/M01 A2993 RMK A01 T00831013  RH  051%=      5-min Rain = 0
KQU1 080643Z 30004KT 08/M01 A2993 RMK A01 T00831013  RH  051%=      5-min Rain = 0
KQU1 080644Z 30003KT 08/M01 A2993 RMK A01 T00821013  RH  051%=      5-min Rain = 0
KQU1 080645Z 30003KT 08/M01 A2993 RMK A01 T00821013  RH  051%=      5-min Rain = 0
KQU1 080646Z 30003KT 08/M01 A2993 RMK A01 T00821012  RH  051%=      5-min Rain = 0
KQU1 080647Z 30003KT 08/M01 A2993 RMK A01 T00811012  RH  052%=      5-min Rain = 0
KQU1 080648Z 30003KT 08/M01 A2993 RMK A01 T00811012  RH  052%=      5-min Rain = 0
KQU1 080649Z 30003KT 08/M01 A2993 RMK A01 T00811012  RH  052%=      5-min Rain = 0
KQU1 080650Z 30003KT 08/M01 A2993 RMK A01 T00811012  RH  052%=      5-min Rain = 0
KQU1 080651Z 30003KT 08/M01 A2993 RMK A01 T00811011  RH  052%=      5-min Rain = 0
KQU1 080652Z 31004KT 08/M01 A2993 RMK A01 T00821011  RH  052%=      5-min Rain = 0
KQU1 080653Z 31004KT 08/M01 A2993 RMK A01 T00821011  RH  052%=      5-min Rain = 0
KQU1 080654Z 31005KT 08/M01 A2993 RMK A01 T00821011  RH  052%=      5-min Rain = 0
KQU1 080655Z 31005KT 08/M01 A2993 RMK A01 T00821012  RH  052%=      5-min Rain = 0
KQU1 080656Z 31005KT 08/M01 A2993 RMK A01 T00811012  RH  052%=      5-min Rain = 0
KQU1 080657Z 31006KT 08/M01 A2993 RMK A01 T00801012  RH  052%=      5-min Rain = 0
KQU1 080658Z 30005KT 08/M01 A2993 RMK A01 T00791011  RH  053%=      5-min Rain = 0
KQU1 080659Z 30005KT 08/M01 A2993 RMK A01 T00791012  RH  053%=      5-min Rain = 0
KQU1 080700Z 30005KT 08/M01 A2993 RMK A01 T00791012  RH  053%=      5-min Rain = 0
KQU1 080701Z 30004KT 08/M01 A2993 RMK A01 T00791012  RH  053%=      5-min Rain = 0
KQU1 080702Z 30004KT 08/M01 A2993 RMK A01 T00791012  RH  053%=      5-min Rain = 0
KQU1 080703Z 30004KT 08/M01 A2993 RMK A01 T00791011  RH  053%=      5-min Rain = 0
KQU1 080704Z 30004KT 08/M01 A2993 RMK A01 T00791011  RH  053%=      5-min Rain = 0
KQU1 080705Z 30004KT 08/M01 A2993 RMK A01 T00791011  RH  053%=      5-min Rain = 0
KQU1 080706Z 30004KT 08/M01 A2993 RMK A01 T00791010  RH  053%=      5-min Rain = 0
KQU1 080707Z 30005KT 08/M01 A2993 RMK A01 T00801010  RH  053%=      5-min Rain = 0
KQU1 080708Z 30005KT 08/M01 A2993 RMK A01 T00811010  RH  053%=      5-min Rain = 0
KQU1 080709Z 30005KT 08/M01 A2993 RMK A01 T00821010  RH  052%=      5-min Rain = 0
KQU1 080710Z 30005KT 08/M01 A2993 RMK A01 T00831010  RH  052%=      5-min Rain = 0
KQU1 080711Z 31005KT 08/M01 A2993 RMK A01 T00821011  RH  052%=      5-min Rain = 0
KQU1 080712Z 30006KT 08/M01 A2993 RMK A01 T00811011  RH  052%=      5-min Rain = 0
KQU1 080713Z 30006KT 08/M01 A2993 RMK A01 T00811011  RH  052%=      5-min Rain = 0
KQU1 080714Z 30006KT 08/M01 A2993 RMK A01 T00811012  RH  052%=      5-min Rain = 0
KQU1 080715Z 30006KT 08/M01 A2993 RMK A01 T00811012  RH  052%=      5-min Rain = 0
KQU1 080716Z 30006KT 08/M01 A2993 RMK A01 T00801012  RH  052%=      5-min Rain = 0
KQU1 080717Z 30006KT 08/M01 A2993 RMK A01 T00791012  RH  052%=      5-min Rain = 0
KQU1 080718Z 30006KT 08/M01 A2993 RMK A01 T00791012  RH  052%=      5-min Rain = 0
KQU1 080719Z 30006KT 08/M01 A2993 RMK A01 T00791012  RH  053%=      5-min Rain = 0
KQU1 080720Z 30006KT 08/M01 A2993 RMK A01 T00791011  RH  053%=      5-min Rain = 0
KQU1 080721Z 30006KT 08/M01 A2993 RMK A01 T00791011  RH  053%=      5-min Rain = 0
KQU1 080722Z 30005KT 08/M01 A2993 RMK A01 T00791011  RH  053%=      5-min Rain = 0
KQU1 080723Z 30005KT 08/M01 A2992 RMK A01 T00791011  RH  053%=      5-min Rain = 0
KQU1 080724Z 30005KT 08/M01 A2992 RMK A01 T00791011  RH  053%=      5-min Rain = 0
KQU1 080725Z 30005KT 08/M01 A2992 RMK A01 T00791011  RH  053%=      5-min Rain = 0
KQU1 080726Z 30005KT 08/M01 A2993 RMK A01 T00791011  RH  053%=      5-min Rain = 0
KQU1 080727Z 30005KT 08/M01 A2993 RMK A01 T00781011  RH  053%=      5-min Rain = 0
KQU1 080728Z 30005KT 08/M01 A2993 RMK A01 T00781011  RH  054%=      5-min Rain = 0
KQU1 080729Z 31005KT 08/M01 A2993 RMK A01 T00771011  RH  054%=      5-min Rain = 0
KQU1 080730Z 30004KT 08/M01 A2992 RMK A01 T00771011  RH  054%=      5-min Rain = 0
KQU1 080731Z 31004KT 08/M01 A2992 RMK A01 T00771010  RH  054%=      5-min Rain = 0
KQU1 080732Z 31005KT 08/M01 A2992 RMK A01 T00771010  RH  054%=      5-min Rain = 0
KQU1 080733Z 31006KT 08/M01 A2992 RMK A01 T00771010  RH  054%=      5-min Rain = 0
KQU1 080734Z 31006KT 08/M01 A2992 RMK A01 T00771010  RH  054%=      5-min Rain = 0
KQU1 080735Z 31006KT 08/M01 A2992 RMK A01 T00771010  RH  054%=      5-min Rain = 0
KQU1 080736Z 31006KT 08/M01 A2992 RMK A01 T00771010  RH  054%=      5-min Rain = 0
KQU1 080737Z 31006KT 08/M01 A2992 RMK A01 T00771010  RH  054%=      5-min Rain = 0
KQU1 080738Z 31006KT 08/M01 A2992 RMK A01 T00771010  RH  054%=      5-min Rain = 0
KQU1 080739Z 30006KT 08/M01 A2992 RMK A01 T00771010  RH  054%=      5-min Rain = 0
KQU1 080740Z 30006KT 08/M01 A2992 RMK A01 T00781010  RH  054%=      5-min Rain = 0
KQU1 080741Z 30006KT 08/M01 A2992 RMK A01 T00781010  RH  054%=      5-min Rain = 0
KQU1 080742Z 30005KT 08/M01 A2992 RMK A01 T00781010  RH  054%=      5-min Rain = 0
KQU1 080743Z 30005KT 08/M01 A2992 RMK A01 T00781009  RH  054%=      5-min Rain = 0
KQU1 080744Z 30005KT 08/M01 A2992 RMK A01 T00791009  RH  054%=      5-min Rain = 0
KQU1 080745Z 30005KT 08/M01 A2992 RMK A01 T00791009  RH  054%=      5-min Rain = 0
KQU1 080746Z 30005KT 08/M01 A2992 RMK A01 T00781009  RH  054%=      5-min Rain = 0
KQU1 080747Z 30005KT 08/M01 A2992 RMK A01 T00781009  RH  054%=      5-min Rain = 0
KQU1 080748Z 30005KT 08/M01 A2992 RMK A01 T00771009  RH  054%=      5-min Rain = 0
KQU1 080749Z 30005KT 08/M01 A2992 RMK A01 T00771008  RH  055%=      5-min Rain = 0
KQU1 080750Z 30005KT 08/M01 A2992 RMK A01 T00771008  RH  055%=      5-min Rain = 0
KQU1 080751Z 30005KT 08/M01 A2992 RMK A01 T00771008  RH  055%=      5-min Rain = 0
KQU1 080752Z 30005KT 08/M01 A2992 RMK A01 T00771008  RH  055%=      5-min Rain = 0
KQU1 080753Z 30005KT 08/M01 A2992 RMK A01 T00771008  RH  055%=      5-min Rain = 0
KQU1 080754Z 30005KT 08/M01 A2992 RMK A01 T00771007  RH  055%=      5-min Rain = 0
KQU1 080755Z 29005KT 08/M01 A2992 RMK A01 T00771007  RH  055%=      5-min Rain = 0
KQU1 080756Z 29004KT 08/M01 A2992 RMK A01 T00781007  RH  055%=      5-min Rain = 0
KQU1 080757Z 29004KT 08/M01 A2992 RMK A01 T00781006  RH  055%=      5-min Rain = 0
KQU1 080758Z 29004KT 08/M01 A2992 RMK A01 T00781006  RH  055%=      5-min Rain = 0
KQU1 080759Z 30004KT 08/M01 A2992 RMK A01 T00791006  RH  055%=      5-min Rain = 0
KQU1 080800Z 30004KT 08/M01 A2992 RMK A01 T00791006  RH  055%=      5-min Rain = 0
KQU1 080801Z 30005KT 08/M01 A2992 RMK A01 T00791006  RH  055%=      5-min Rain = 0
KQU1 080802Z 29005KT 08/M01 A2992 RMK A01 T00791006  RH  055%=      5-min Rain = 0
KQU1 080803Z 29005KT 08/M01 A2992 RMK A01 T00791007  RH  055%=      5-min Rain = 0
KQU1 080804Z 29005KT 08/M01 A2992 RMK A01 T00791007  RH  055%=      5-min Rain = 0
KQU1 080805Z 29005KT 08/M01 A2992 RMK A01 T00791007  RH  055%=      5-min Rain = 0
KQU1 080806Z 29005KT 08/M01 A2992 RMK A01 T00781006  RH  055%=      5-min Rain = 0
KQU1 080807Z 29005KT 08/M01 A2992 RMK A01 T00781006  RH  055%=      5-min Rain = 0
KQU1 080808Z 29005KT 08/M01 A2992 RMK A01 T00781006  RH  055%=      5-min Rain = 0
KQU1 080809Z 29005KT 08/M01 A2992 RMK A01 T00781006  RH  055%=      5-min Rain = 0
KQU1 080810Z 30005KT 08/M01 A2992 RMK A01 T00791006  RH  055%=      5-min Rain = 0
KQU1 080811Z 29005KT 08/M01 A2992 RMK A01 T00781006  RH  055%=      5-min Rain = 0
KQU1 080812Z 29004KT 08/M01 A2992 RMK A01 T00781006  RH  055%=      5-min Rain = 0
KQU1 080813Z 29004KT 08/M01 A2992 RMK A01 T00781006  RH  055%=      5-min Rain = 0
KQU1 080814Z 29004KT 08/M01 A2992 RMK A01 T00771006  RH  056%=      5-min Rain = 0
KQU1 080815Z 30004KT 08/M01 A2992 RMK A01 T00771006  RH  056%=      5-min Rain = 0
KQU1 080816Z 30005KT 08/M01 A2992 RMK A01 T00771006  RH  056%=      5-min Rain = 0
KQU1 080817Z 30005KT 08/M01 A2992 RMK A01 T00771006  RH  056%=      5-min Rain = 0
KQU1 080818Z 30005KT 08/M01 A2992 RMK A01 T00771006  RH  056%=      5-min Rain = 0
KQU1 080819Z 30005KT 08/M01 A2992 RMK A01 T00771006  RH  056%=      5-min Rain = 0
KQU1 080820Z 30005KT 08/M01 A2992 RMK A01 T00771006  RH  056%=      5-min Rain = 0
KQU1 080821Z 30005KT 08/M01 A2992 RMK A01 T00771006  RH  056%=      5-min Rain = 0
KQU1 080822Z 30005KT 08/M01 A2992 RMK A01 T00761006  RH  056%=      5-min Rain = 0
KQU1 080823Z 31006KT 08/M01 A2992 RMK A01 T00761006  RH  056%=      5-min Rain = 0
KQU1 080824Z 31006KT 08/M01 A2992 RMK A01 T00751007  RH  056%=      5-min Rain = 0
KQU1 080825Z 31006KT 07/M01 A2992 RMK A01 T00741008  RH  056%=      5-min Rain = 0
KQU1 080826Z 31005KT 07/M01 A2992 RMK A01 T00741008  RH  056%=      5-min Rain = 0
KQU1 080827Z 30005KT 07/M01 A2992 RMK A01 T00731008  RH  056%=      5-min Rain = 0
KQU1 080828Z 30005KT 07/M01 A2992 RMK A01 T00731008  RH  057%=      5-min Rain = 0
KQU1 080829Z 30004KT 07/M01 A2992 RMK A01 T00721008  RH  057%=      5-min Rain = 0
KQU1 080830Z 30005KT 07/M01 A2992 RMK A01 T00721008  RH  057%=      5-min Rain = 0
KQU1 080831Z 30005KT 07/M01 A2992 RMK A01 T00721008  RH  057%=      5-min Rain = 0
KQU1 080832Z 30005KT 07/M01 A2992 RMK A01 T00721008  RH  057%=      5-min Rain = 0
KQU1 080833Z 30004KT 07/M01 A2992 RMK A01 T00711009  RH  057%=      5-min Rain = 0
KQU1 080834Z 30004KT 07/M01 A2992 RMK A01 T00711008  RH  057%=      5-min Rain = 0
KQU1 080835Z 30004KT 07/M01 A2992 RMK A01 T00711008  RH  057%=      5-min Rain = 0
KQU1 080836Z 30005KT 07/M01 A2992 RMK A01 T00711007  RH  057%=      5-min Rain = 0
KQU1 080837Z 30005KT 07/M01 A2992 RMK A01 T00711007  RH  058%=      5-min Rain = 0
KQU1 080838Z 30005KT 07/M01 A2992 RMK A01 T00711007  RH  058%=      5-min Rain = 0
KQU1 080839Z 30005KT 07/M01 A2992 RMK A01 T00711006  RH  058%=      5-min Rain = 0
KQU1 080840Z 30005KT 07/M01 A2992 RMK A01 T00711006  RH  058%=      5-min Rain = 0
KQU1 080841Z 30005KT 07/M01 A2992 RMK A01 T00711006  RH  058%=      5-min Rain = 0
KQU1 080842Z 30005KT 07/M01 A2992 RMK A01 T00721006  RH  058%=      5-min Rain = 0
KQU1 080843Z 30005KT 07/M01 A2992 RMK A01 T00721005  RH  058%=      5-min Rain = 0
KQU1 080844Z 30005KT 07/M01 A2992 RMK A01 T00731005  RH  058%=      5-min Rain = 0
KQU1 080845Z 29005KT 07/M01 A2992 RMK A01 T00731005  RH  058%=      5-min Rain = 0
KQU1 080846Z 29005KT 07/M01 A2992 RMK A01 T00741005  RH  057%=      5-min Rain = 0
KQU1 080847Z 29005KT 07/M01 A2992 RMK A01 T00741005  RH  057%=      5-min Rain = 0
KQU1 080848Z 29005KT 07/M00 A2992 RMK A01 T00741004  RH  058%=      5-min Rain = 0
KQU1 080849Z 29005KT 08/M00 A2992 RMK A01 T00751004  RH  057%=      5-min Rain = 0
KQU1 080850Z 29005KT 08/M00 A2992 RMK A01 T00751003  RH  057%=      5-min Rain = 0
KQU1 080851Z 29005KT 08/M00 A2992 RMK A01 T00761003  RH  057%=      5-min Rain = 0
KQU1 080852Z 29005KT 08/M00 A2992 RMK A01 T00771003  RH  057%=      5-min Rain = 0
KQU1 080853Z 30005KT 08/M00 A2992 RMK A01 T00781003  RH  057%=      5-min Rain = 0
KQU1 080854Z 30006KT 08/M00 A2992 RMK A01 T00781004  RH  056%=      5-min Rain = 0
KQU1 080855Z 30006KT 08/M01 A2992 RMK A01 T00761005  RH  056%=      5-min Rain = 0
KQU1 080856Z 30005KT 08/M01 A2992 RMK A01 T00751005  RH  057%=      5-min Rain = 0
KQU1 080857Z 30005KT 07/M00 A2992 RMK A01 T00741004  RH  057%=      5-min Rain = 0
KQU1 080858Z 29005KT 07/M00 A2992 RMK A01 T00741004  RH  058%=      5-min Rain = 0
KQU1 080859Z 29004KT 07/M00 A2992 RMK A01 T00741004  RH  058%=      5-min Rain = 0
KQU1 080900Z 29004KT 07/M00 A2992 RMK A01 T00741004  RH  057%=      5-min Rain = 0
KQU1 080901Z 28004KT 07/M00 A2992 RMK A01 T00741004  RH  057%=      5-min Rain = 0
KQU1 080902Z 28004KT 08/M00 A2992 RMK A01 T00751004  RH  057%=      5-min Rain = 0
KQU1 080903Z 28003KT 08/M00 A2992 RMK A01 T00751004  RH  057%=      5-min Rain = 0
KQU1 080904Z 28003KT 08/M00 A2992 RMK A01 T00751003  RH  058%=      5-min Rain = 0
KQU1 080905Z 29004KT 08/M00 A2992 RMK A01 T00751003  RH  058%=      5-min Rain = 0
KQU1 080906Z 30005KT 08/M00 A2992 RMK A01 T00751004  RH  058%=      5-min Rain = 0
KQU1 080907Z 31006KT 07/M01 A2992 RMK A01 T00741005  RH  058%=      5-min Rain = 0
KQU1 080908Z 30006KT 07/M01 A2992 RMK A01 T00731005  RH  058%=      5-min Rain = 0
KQU1 080909Z 30005KT 07/M00 A2992 RMK A01 T00721004  RH  058%=      5-min Rain = 0
KQU1 080910Z 30004KT 07/M00 A2992 RMK A01 T00711004  RH  059%=      5-min Rain = 0
KQU1 080911Z 30004KT 07/M00 A2992 RMK A01 T00711004  RH  059%=      5-min Rain = 0
KQU1 080912Z 29004KT 07/M00 A2991 RMK A01 T00701004  RH  059%=      5-min Rain = 0
KQU1 080913Z 29003KT 07/M00 A2991 RMK A01 T00701004  RH  059%=      5-min Rain = 0
KQU1 080914Z 29003KT 07/M00 A2991 RMK A01 T00711003  RH  059%=      5-min Rain = 0
KQU1 080915Z 29004KT 07/M00 A2991 RMK A01 T00711003  RH  059%=      5-min Rain = 0
KQU1 080916Z 29004KT 07/M00 A2991 RMK A01 T00711003  RH  059%=      5-min Rain = 0
KQU1 080917Z 29004KT 07/M00 A2991 RMK A01 T00711003  RH  059%=      5-min Rain = 0
KQU1 080918Z 29005KT 07/M00 A2991 RMK A01 T00711003  RH  059%=      5-min Rain = 0
KQU1 080919Z 29005KT 07/M00 A2991 RMK A01 T00711003  RH  059%=      5-min Rain = 0
KQU1 080920Z 29005KT 07/M00 A2991 RMK A01 T00721003  RH  059%=      5-min Rain = 0
KQU1 080921Z 29005KT 07/M00 A2991 RMK A01 T00721003  RH  059%=      5-min Rain = 0
KQU1 080922Z 29004KT 07/M00 A2991 RMK A01 T00731003  RH  059%=      5-min Rain = 0
KQU1 080923Z 28004KT 07/M00 A2991 RMK A01 T00731002  RH  059%=      5-min Rain = 0
KQU1 080924Z 28004KT 07/M00 A2991 RMK A01 T00741002  RH  058%=      5-min Rain = 0
KQU1 080925Z 28004KT 08/M00 A2991 RMK A01 T00761001  RH  058%=      5-min Rain = 0
KQU1 080926Z 27004KT 08/M00 A2991 RMK A01 T00771001  RH  058%=      5-min Rain = 0
KQU1 080927Z 27004KT 08/M00 A2991 RMK A01 T00781001  RH  058%=      5-min Rain = 0
KQU1 080928Z 27004KT 08/M00 A2991 RMK A01 T00791001  RH  057%=      5-min Rain = 0
KQU1 080929Z 27004KT 08/00 A2991 RMK A01 T007900-0  RH  057%=      5-min Rain = 0
KQU1 080930Z 27004KT 08/00 A2991 RMK A01 T007900-0  RH  057%=      5-min Rain = 0
KQU1 080931Z 27004KT 08/00 A2991 RMK A01 T007900-0  RH  057%=      5-min Rain = 0
KQU1 080932Z 27003KT 08/00 A2991 RMK A01 T007900-0  RH  057%=      5-min Rain = 0
KQU1 080933Z 28003KT 08/00 A2991 RMK A01 T007900-0  RH  057%=      5-min Rain = 0
KQU1 080934Z 29004KT 08/00 A2991 RMK A01 T007900-0  RH  057%=      5-min Rain = 0
KQU1 080935Z 29004KT 08/M00 A2991 RMK A01 T00781001  RH  057%=      5-min Rain = 0
KQU1 080936Z 29004KT 08/M00 A299 RMK A01 T00771001  RH  058%=      5-min Rain = 0
KQU1 080937Z 28003KT 08/M00 A299 RMK A01 T00771002  RH  058%=      5-min Rain = 0
KQU1 080938Z 27004KT 08/M00 A299 RMK A01 T00761002  RH  058%=      5-min Rain = 0
KQU1 080939Z 27004KT 08/M00 A299 RMK A01 T00751002  RH  058%=      5-min Rain = 0
KQU1 080940Z 27004KT 08/M00 A299 RMK A01 T00751002  RH  058%=      5-min Rain = 0
KQU1 080941Z 26004KT 07/M00 A299 RMK A01 T00741002  RH  058%=      5-min Rain = 0
KQU1 080942Z 26004KT 07/M00 A2991 RMK A01 T00741002  RH  059%=      5-min Rain = 0
KQU1 080943Z 26004KT 07/M00 A2991 RMK A01 T00741002  RH  059%=      5-min Rain = 0
KQU1 080944Z 26004KT 07/M00 A2991 RMK A01 T00741001  RH  059%=      5-min Rain = 0
KQU1 080945Z 27004KT 08/M00 A2991 RMK A01 T00751001  RH  059%=      5-min Rain = 0
KQU1 080946Z 27004KT 08/00 A2991 RMK A01 T007600-0  RH  059%=      5-min Rain = 0
KQU1 080947Z 27004KT 08/00 A2991 RMK A01 T007700-0  RH  058%=      5-min Rain = 0
KQU1 080948Z 27004KT 08/00 A299 RMK A01 T007800-0  RH  058%=      5-min Rain = 0
KQU1 080949Z 26004KT 08/00 A299 RMK A01 T007800-0  RH  058%=      5-min Rain = 0
KQU1 080950Z 26004KT 08/00 A299 RMK A01 T007800-0  RH  058%=      5-min Rain = 0
KQU1 080951Z 26004KT 08/M00 A299 RMK A01 T00771001  RH  058%=      5-min Rain = 0
KQU1 080952Z 26004KT 08/M00 A299 RMK A01 T00771001  RH  058%=      5-min Rain = 0
KQU1 080953Z 26004KT 08/M00 A299 RMK A01 T00761001  RH  058%=      5-min Rain = 0
KQU1 080954Z 27003KT 08/M00 A299 RMK A01 T00751001  RH  058%=      5-min Rain = 0
KQU1 080955Z 28004KT 08/M00 A299 RMK A01 T00751001  RH  059%=      5-min Rain = 0
KQU1 080956Z 28004KT 07/M00 A299 RMK A01 T00741001  RH  059%=      5-min Rain = 0
KQU1 080957Z 28004KT 07/M00 A299 RMK A01 T00731002  RH  059%=      5-min Rain = 0
KQU1 080958Z 28004KT 07/M00 A299 RMK A01 T00721002  RH  059%=      5-min Rain = 0
KQU1 080959Z 28004KT 07/M00 A299 RMK A01 T00711002  RH  060%=      5-min Rain = 0
KQU1 081000Z 28004KT 07/M00 A299 RMK A01 T00701002  RH  060%=      5-min Rain = 0
KQU1 081001Z 28005KT 07/M00 A299 RMK A01 T00701002  RH  060%=      5-min Rain = 0
KQU1 081002Z 28005KT 07/M00 A299 RMK A01 T00701002  RH  060%=      5-min Rain = 0
KQU1 081003Z 28005KT 07/M00 A299 RMK A01 T00711001  RH  060%=      5-min Rain = 0
KQU1 081004Z 28005KT 07/M00 A299 RMK A01 T00711001  RH  060%=      5-min Rain = 0
KQU1 081005Z 28005KT 07/M00 A299 RMK A01 T00711002  RH  060%=      5-min Rain = 0
KQU1 081006Z 29005KT 07/M00 A299 RMK A01 T00711002  RH  060%=      5-min Rain = 0
KQU1 081007Z 28005KT 07/M00 A299 RMK A01 T00711002  RH  060%=      5-min Rain = 0
KQU1 081008Z 29005KT 07/M00 A299 RMK A01 T00701002  RH  060%=      5-min Rain = 0
KQU1 081009Z 29005KT 07/M00 A299 RMK A01 T00701002  RH  060%=      5-min Rain = 0
KQU1 081010Z 28005KT 07/M00 A299 RMK A01 T00701001  RH  060%=      5-min Rain = 0
KQU1 081011Z 28005KT 07/M00 A299 RMK A01 T00701001  RH  060%=      5-min Rain = 0
KQU1 081012Z 28005KT 07/M00 A299 RMK A01 T00701001  RH  060%=      5-min Rain = 0
KQU1 081013Z 28005KT 07/M00 A299 RMK A01 T00701001  RH  060%=      5-min Rain = 0
KQU1 081014Z 28005KT 07/M00 A299 RMK A01 T00711001  RH  060%=      5-min Rain = 0
KQU1 081015Z 28005KT 07/M00 A299 RMK A01 T00711001  RH  060%=      5-min Rain = 0
KQU1 081016Z 29005KT 07/M00 A299 RMK A01 T00711001  RH  060%=      5-min Rain = 0
KQU1 081017Z 29005KT 07/M00 A299 RMK A01 T00711001  RH  060%=      5-min Rain = 0
KQU1 081018Z 29005KT 07/M00 A299 RMK A01 T00711001  RH  060%=      5-min Rain = 0
KQU1 081019Z 29005KT 07/M00 A299 RMK A01 T00711001  RH  060%=      5-min Rain = 0
KQU1 081020Z 29005KT 07/M00 A299 RMK A01 T00711001  RH  060%=      5-min Rain = 0
KQU1 081021Z 29005KT 07/M00 A299 RMK A01 T00711001  RH  060%=      5-min Rain = 0
KQU1 081022Z 29004KT 07/M00 A299 RMK A01 T00711001  RH  060%=      5-min Rain = 0
KQU1 081023Z 28005KT 07/M00 A299 RMK A01 T00721001  RH  060%=      5-min Rain = 0
KQU1 081024Z 28004KT 07/00 A299 RMK A01 T007200-0  RH  060%=      5-min Rain = 0
KQU1 081025Z 29004KT 07/M00 A299 RMK A01 T00731001  RH  060%=      5-min Rain = 0
KQU1 081026Z 28004KT 07/00 A299 RMK A01 T007300-0  RH  060%=      5-min Rain = 0
KQU1 081027Z 29005KT 07/00 A299 RMK A01 T007300-0  RH  059%=      5-min Rain = 0
KQU1 081028Z 29005KT 07/00 A299 RMK A01 T007400-0  RH  059%=      5-min Rain = 0
KQU1 081029Z 28005KT 07/00 A299 RMK A01 T007400-0  RH  059%=      5-min Rain = 0
KQU1 081030Z 28004KT 07/00 A299 RMK A01 T007400-0  RH  059%=      5-min Rain = 0
KQU1 081031Z 28004KT 07/00 A299 RMK A01 T007400-0  RH  059%=      5-min Rain = 0
KQU1 081032Z 28004KT 07/00 A299 RMK A01 T007400-0  RH  059%=      5-min Rain = 0
KQU1 081033Z 28004KT 07/00 A299 RMK A01 T007400-0  RH  059%=      5-min Rain = 0
KQU1 081034Z 28004KT 08/00 A299 RMK A01 T00750000  RH  059%=      5-min Rain = 0
KQU1 081035Z 28004KT 08/00 A299 RMK A01 T00750000  RH  059%=      5-min Rain = 0
KQU1 081036Z 29004KT 08/00 A299 RMK A01 T007500-0  RH  059%=      5-min Rain = 0
KQU1 081037Z 29004KT 08/00 A299 RMK A01 T007600-0  RH  059%=      5-min Rain = 0
KQU1 081038Z 29004KT 08/00 A299 RMK A01 T007600-0  RH  059%=      5-min Rain = 0
KQU1 081039Z 29004KT 08/M00 A299 RMK A01 T00761001  RH  058%=      5-min Rain = 0
KQU1 081040Z 29004KT 08/M00 A299 RMK A01 T00751001  RH  058%=      5-min Rain = 0
KQU1 081041Z 28004KT 08/M00 A299 RMK A01 T00751001  RH  058%=      5-min Rain = 0
KQU1 081042Z 28004KT 08/M00 A299 RMK A01 T00751001  RH  059%=      5-min Rain = 0
KQU1 081043Z 29004KT 07/M00 A299 RMK A01 T00741001  RH  059%=      5-min Rain = 0
KQU1 081044Z 29005KT 07/M00 A299 RMK A01 T00731002  RH  059%=      5-min Rain = 0
KQU1 081045Z 28005KT 07/M00 A299 RMK A01 T00731002  RH  059%=      5-min Rain = 0
KQU1 081046Z 28005KT 07/M00 A299 RMK A01 T00721001  RH  060%=      5-min Rain = 0
KQU1 081047Z 28005KT 07/M00 A299 RMK A01 T00721001  RH  060%=      5-min Rain = 0
KQU1 081048Z 28005KT 07/M00 A299 RMK A01 T00731001  RH  060%=      5-min Rain = 0
KQU1 081049Z 28005KT 07/M00 A299 RMK A01 T00741001  RH  059%=      5-min Rain = 0
KQU1 081050Z 28005KT 07/00 A299 RMK A01 T007400-0  RH  059%=      5-min Rain = 0
KQU1 081051Z 28005KT 08/00 A299 RMK A01 T00760000  RH  059%=      5-min Rain = 0
KQU1 081052Z 28004KT 08/00 A299 RMK A01 T00770000  RH  058%=      5-min Rain = 0
KQU1 081053Z 28004KT 08/00 A299 RMK A01 T00790000  RH  058%=      5-min Rain = 0
KQU1 081054Z 28004KT 08/00 A299 RMK A01 T00800000  RH  057%=      5-min Rain = 0
KQU1 081055Z 29004KT 08/00 A299 RMK A01 T00800000  RH  057%=      5-min Rain = 0
KQU1 081056Z 29004KT 08/00 A299 RMK A01 T007900-0  RH  057%=      5-min Rain = 0
KQU1 081057Z 29004KT 08/00 A299 RMK A01 T007900-0  RH  057%=      5-min Rain = 0
KQU1 081058Z 29004KT 08/M00 A299 RMK A01 T00781001  RH  058%=      5-min Rain = 0
KQU1 081059Z 29003KT 08/M00 A299 RMK A01 T00761001  RH  058%=      5-min Rain = 0
KQU1 081100Z 29004KT 08/M00 A299 RMK A01 T00751001  RH  058%=      5-min Rain = 0
KQU1 081101Z 29004KT 07/M00 A299 RMK A01 T00741001  RH  059%=      5-min Rain = 0
KQU1 081102Z 29004KT 07/M00 A299 RMK A01 T00731001  RH  059%=      5-min Rain = 0
KQU1 081103Z 30004KT 07/M00 A299 RMK A01 T00721001  RH  060%=      5-min Rain = 0
KQU1 081104Z 29005KT 07/M00 A299 RMK A01 T00711002  RH  060%=      5-min Rain = 0
KQU1 081105Z 29005KT 07/M00 A299 RMK A01 T00711002  RH  060%=      5-min Rain = 0
KQU1 081106Z 29005KT 07/M00 A299 RMK A01 T00711002  RH  060%=      5-min Rain = 0
KQU1 081107Z 29005KT 07/M00 A299 RMK A01 T00711002  RH  060%=      5-min Rain = 0
KQU1 081108Z 29005KT 07/M00 A299 RMK A01 T00711002  RH  060%=      5-min Rain = 0
KQU1 081109Z 28005KT 07/M00 A299 RMK A01 T00701002  RH  060%=      5-min Rain = 0
KQU1 081110Z 28005KT 07/M00 A299 RMK A01 T00701001  RH  060%=      5-min Rain = 0
KQU1 081111Z 29005KT 07/M00 A299 RMK A01 T00711001  RH  060%=      5-min Rain = 0
KQU1 081112Z 28005KT 07/00 A299 RMK A01 T007100-0  RH  060%=      5-min Rain = 0
KQU1 081113Z 28004KT 07/00 A299 RMK A01 T00720000  RH  060%=      5-min Rain = 0
KQU1 081114Z 28005KT 07/00 A299 RMK A01 T00730000  RH  060%=      5-min Rain = 0
KQU1 081115Z 28005KT 07/00 A299 RMK A01 T00740000  RH  060%=      5-min Rain = 0
KQU1 081116Z 29005KT 07/00 A299 RMK A01 T00740000  RH  059%=      5-min Rain = 0
KQU1 081117Z 29004KT 08/00 A299 RMK A01 T00750000  RH  059%=      5-min Rain = 0
KQU1 081118Z 28004KT 08/00 A299 RMK A01 T00750001  RH  059%=      5-min Rain = 0
KQU1 081119Z 28004KT 08/00 A299 RMK A01 T00750001  RH  059%=      5-min Rain = 0
KQU1 081120Z 28004KT 08/00 A299 RMK A01 T00760000  RH  059%=      5-min Rain = 0
KQU1 081121Z 28004KT 08/00 A299 RMK A01 T00760000  RH  059%=      5-min Rain = 0
KQU1 081122Z 28004KT 08/00 A299 RMK A01 T007600-0  RH  059%=      5-min Rain = 0
KQU1 081123Z 28004KT 08/00 A299 RMK A01 T007500-0  RH  059%=      5-min Rain = 0
KQU1 081124Z 28004KT 08/00 A299 RMK A01 T007500-0  RH  059%=      5-min Rain = 0
KQU1 081125Z 28004KT 07/00 A299 RMK A01 T007400-0  RH  059%=      5-min Rain = 0
KQU1 081126Z 28004KT 07/00 A299 RMK A01 T007400-0  RH  059%=      5-min Rain = 0
KQU1 081127Z 29004KT 07/00 A299 RMK A01 T007400-0  RH  059%=      5-min Rain = 0
KQU1 081128Z 29004KT 07/00 A299 RMK A01 T007300-0  RH  060%=      5-min Rain = 0
KQU1 081129Z 29004KT 07/00 A299 RMK A01 T007300-0  RH  060%=      5-min Rain = 0
KQU1 081130Z 29004KT 07/00 A299 RMK A01 T007200-0  RH  060%=      5-min Rain = 0
KQU1 081131Z 29004KT 07/00 A299 RMK A01 T007200-0  RH  060%=      5-min Rain = 0
KQU1 081132Z 28004KT 07/00 A299 RMK A01 T007200-0  RH  060%=      5-min Rain = 0
KQU1 081133Z 29004KT 07/00 A299 RMK A01 T007100-0  RH  060%=      5-min Rain = 0
KQU1 081134Z 29004KT 07/00 A299 RMK A01 T007100-0  RH  060%=      5-min Rain = 0
KQU1 081135Z 29004KT 07/00 A299 RMK A01 T007100-0  RH  060%=      5-min Rain = 0
KQU1 081136Z 29004KT 07/M00 A299 RMK A01 T00701001  RH  061%=      5-min Rain = 0
KQU1 081137Z 29004KT 07/M00 A299 RMK A01 T00701001  RH  061%=      5-min Rain = 0
KQU1 081138Z 29004KT 07/M00 A299 RMK A01 T00701001  RH  061%=      5-min Rain = 0
KQU1 081139Z 28004KT 07/00 A299 RMK A01 T007000-0  RH  061%=      5-min Rain = 0
KQU1 081140Z 29004KT 07/00 A299 RMK A01 T007000-0  RH  061%=      5-min Rain = 0
KQU1 081141Z 29005KT 07/00 A299 RMK A01 T007000-0  RH  061%=      5-min Rain = 0
KQU1 081142Z 29005KT 07/00 A299 RMK A01 T00710000  RH  061%=      5-min Rain = 0
KQU1 081143Z 29004KT 07/00 A299 RMK A01 T00710000  RH  061%=      5-min Rain = 0
KQU1 081144Z 29004KT 07/00 A299 RMK A01 T00720001  RH  060%=      5-min Rain = 0
KQU1 081145Z 29005KT 07/00 A299 RMK A01 T00730001  RH  060%=      5-min Rain = 0
KQU1 081146Z 29004KT 07/00 A299 RMK A01 T00730001  RH  060%=      5-min Rain = 0
KQU1 081147Z 29004KT 08/00 A299 RMK A01 T00750001  RH  060%=      5-min Rain = 0
KQU1 081148Z 29004KT 08/00 A299 RMK A01 T00750001  RH  059%=      5-min Rain = 0
KQU1 081149Z 29004KT 08/00 A299 RMK A01 T00760002  RH  059%=      5-min Rain = 0
KQU1 081150Z 29004KT 08/00 A299 RMK A01 T00770002  RH  059%=      5-min Rain = 0
KQU1 081151Z 29004KT 08/00 A299 RMK A01 T00770002  RH  059%=      5-min Rain = 0
KQU1 081152Z 28004KT 08/00 A299 RMK A01 T00780002  RH  059%=      5-min Rain = 0
KQU1 081153Z 28004KT 08/00 A299 RMK A01 T00780002  RH  058%=      5-min Rain = 0
KQU1 081154Z 28004KT 08/00 A299 RMK A01 T00780001  RH  058%=      5-min Rain = 0
KQU1 081155Z 28004KT 08/00 A299 RMK A01 T00780001  RH  058%=      5-min Rain = 0
KQU1 081156Z 28004KT 08/00 A299 RMK A01 T00780001  RH  058%=      5-min Rain = 0
KQU1 081157Z 28004KT 08/00 A299 RMK A01 T00770001  RH  059%=      5-min Rain = 0
KQU1 081158Z 28004KT 08/00 A299 RMK A01 T00760001  RH  059%=      5-min Rain = 0
KQU1 081159Z 28004KT 08/00 A299 RMK A01 T00760001  RH  059%=      5-min Rain = 0
KQU1 081200Z 28004KT 08/00 A299 RMK A01 T00770002  RH  059%=      5-min Rain = 0
KQU1 081201Z 28004KT 08/00 A299 RMK A01 T00770002  RH  059%=      5-min Rain = 0
KQU1 081202Z 28004KT 08/00 A299 RMK A01 T00780002  RH  059%=      5-min Rain = 0
KQU1 081203Z 27004KT 08/00 A299 RMK A01 T00780002  RH  059%=      5-min Rain = 0
KQU1 081204Z 27004KT 08/00 A299 RMK A01 T00790002  RH  058%=      5-min Rain = 0
KQU1 081205Z 28004KT 08/00 A299 RMK A01 T00790002  RH  058%=      5-min Rain = 0
KQU1 081206Z 28004KT 08/00 A299 RMK A01 T00780002  RH  059%=      5-min Rain = 0
KQU1 081207Z 27004KT 08/00 A299 RMK A01 T00770002  RH  059%=      5-min Rain = 0
KQU1 081208Z 27004KT 08/00 A299 RMK A01 T00770002  RH  059%=      5-min Rain = 0
KQU1 081209Z 28004KT 08/00 A299 RMK A01 T00760002  RH  059%=      5-min Rain = 0
KQU1 081210Z 28004KT 08/00 A299 RMK A01 T00750002  RH  059%=      5-min Rain = 0
KQU1 081211Z 28004KT 07/00 A299 RMK A01 T00740001  RH  060%=      5-min Rain = 0
KQU1 081212Z 28004KT 07/00 A299 RMK A01 T00740002  RH  060%=      5-min Rain = 0
KQU1 081213Z 28004KT 07/00 A299 RMK A01 T00740002  RH  060%=      5-min Rain = 0
KQU1 081214Z 29004KT 07/00 A299 RMK A01 T00730002  RH  060%=      5-min Rain = 0
KQU1 081215Z 29004KT 07/00 A299 RMK A01 T00730001  RH  060%=      5-min Rain = 0
KQU1 081216Z 29005KT 07/00 A299 RMK A01 T00730001  RH  060%=      5-min Rain = 0
KQU1 081217Z 28004KT 07/00 A299 RMK A01 T00730001  RH  060%=      5-min Rain = 0
KQU1 081218Z 29005KT 07/00 A299 RMK A01 T00730001  RH  060%=      5-min Rain = 0
KQU1 081219Z 29005KT 07/00 A299 RMK A01 T00720001  RH  061%=      5-min Rain = 0
KQU1 081220Z 29005KT 07/00 A299 RMK A01 T00710000  RH  061%=      5-min Rain = 0
KQU1 081221Z 29005KT 07/00 A299 RMK A01 T00690000  RH  061%=      5-min Rain = 0
KQU1 081222Z 30005KT 07/00 A299 RMK A01 T00680000  RH  062%=      5-min Rain = 0
KQU1 081223Z 30006KT 07/00 A2991 RMK A01 T00680000  RH  062%=      5-min Rain = 0
KQU1 081224Z 29006KT 07/00 A2991 RMK A01 T00680001  RH  062%=      5-min Rain = 0
KQU1 081225Z 29006KT 07/00 A2991 RMK A01 T00680001  RH  063%=      5-min Rain = 0
KQU1 081226Z 29006KT 07/00 A2991 RMK A01 T00680001  RH  063%=      5-min Rain = 0
KQU1 081227Z 30006KT 07/00 A2991 RMK A01 T00680001  RH  063%=      5-min Rain = 0
KQU1 081228Z 30006KT 07/00 A2991 RMK A01 T00680001  RH  062%=      5-min Rain = 0
KQU1 081229Z 30006KT 07/00 A2991 RMK A01 T00670001  RH  062%=      5-min Rain = 0
KQU1 081230Z 30006KT 07/00 A2991 RMK A01 T006600-0  RH  063%=      5-min Rain = 0
KQU1 081231Z 30007KT 07/00 A2991 RMK A01 T006500-0  RH  063%=      5-min Rain = 0
KQU1 081232Z 30006KT 07/M00 A2991 RMK A01 T00651001  RH  063%=      5-min Rain = 0
KQU1 081233Z 30006KT 07/M00 A2991 RMK A01 T00651001  RH  063%=      5-min Rain = 0
KQU1 081234Z 30006KT 07/00 A2991 RMK A01 T006500-0  RH  063%=      5-min Rain = 0
KQU1 081235Z 30006KT 07/00 A2991 RMK A01 T00660000  RH  063%=      5-min Rain = 0
KQU1 081236Z 30006KT 07/00 A2991 RMK A01 T00670001  RH  063%=      5-min Rain = 0
KQU1 081237Z 30006KT 07/00 A2991 RMK A01 T00670001  RH  063%=      5-min Rain = 0
KQU1 081238Z 30006KT 07/00 A2991 RMK A01 T00680001  RH  062%=      5-min Rain = 0
KQU1 081239Z 30006KT 07/00 A2991 RMK A01 T00680001  RH  062%=      5-min Rain = 0
KQU1 081240Z 30006KT 07/00 A2991 RMK A01 T00680001  RH  062%=      5-min Rain = 0
KQU1 081241Z 31006KT 07/00 A2991 RMK A01 T00680001  RH  062%=      5-min Rain = 0
KQU1 081242Z 31006KT 07/00 A2991 RMK A01 T00690000  RH  062%=      5-min Rain = 0
KQU1 081243Z 31006KT 07/00 A2991 RMK A01 T00690000  RH  062%=      5-min Rain = 0
KQU1 081244Z 31006KT 07/00 A2991 RMK A01 T00690000  RH  061%=      5-min Rain = 0
KQU1 081245Z 31006KT 07/00 A2991 RMK A01 T00690001  RH  062%=      5-min Rain = 0
KQU1 081246Z 31006KT 07/00 A2991 RMK A01 T00700001  RH  061%=      5-min Rain = 0
KQU1 081247Z 31006KT 07/00 A2991 RMK A01 T00720002  RH  061%=      5-min Rain = 0
KQU1 081248Z 31006KT 07/00 A2991 RMK A01 T00730001  RH  060%=      5-min Rain = 0
KQU1 081249Z 31006KT 07/00 A2991 RMK A01 T00740002  RH  060%=      5-min Rain = 0
KQU1 081250Z 31007KT 08/00 A2991 RMK A01 T00750002  RH  060%=      5-min Rain = 0
KQU1 081251Z 31007KT 08/00 A2991 RMK A01 T00760001  RH  059%=      5-min Rain = 0
KQU1 081252Z 31007KT 08/00 A2991 RMK A01 T00760001  RH  059%=      5-min Rain = 0
KQU1 081253Z 31007KT 08/00 A2991 RMK A01 T00770001  RH  059%=      5-min Rain = 0
KQU1 081254Z 31007KT 08/00 A2991 RMK A01 T00780002  RH  058%=      5-min Rain = 0
KQU1 081255Z 31007KT 08/00 A2991 RMK A01 T00790002  RH  058%=      5-min Rain = 0
KQU1 081256Z 31007KT 08/00 A2991 RMK A01 T00790002  RH  058%=      5-min Rain = 0
KQU1 081257Z 31006KT 08/00 A2991 RMK A01 T00800002  RH  058%=      5-min Rain = 0
KQU1 081258Z 31006KT 08/00 A2991 RMK A01 T00810002  RH  057%=      5-min Rain = 0
KQU1 081259Z 31006KT 08/00 A2991 RMK A01 T00820002  RH  057%=      5-min Rain = 0
KQU1 081300Z 31006KT 08/00 A2991 RMK A01 T00820003  RH  057%=      5-min Rain = 0
KQU1 081301Z 31006KT 08/00 A2991 RMK A01 T00830003  RH  057%=      5-min Rain = 0
KQU1 081302Z 31006KT 08/00 A2991 RMK A01 T00840004  RH  057%=      5-min Rain = 0
KQU1 081303Z 31006KT 09/00 A2991 RMK A01 T00860004  RH  057%=      5-min Rain = 0
KQU1 081304Z 32006KT 09/01 A2991 RMK A01 T00870005  RH  057%=      5-min Rain = 0
KQU1 081305Z 31006KT 09/01 A2991 RMK A01 T00880006  RH  057%=      5-min Rain = 0
KQU1 081306Z 31006KT 09/01 A2991 RMK A01 T00890006  RH  056%=      5-min Rain = 0
KQU1 081307Z 31006KT 09/01 A2991 RMK A01 T00900006  RH  056%=      5-min Rain = 0
KQU1 081308Z 31006KT 09/01 A2991 RMK A01 T00910006  RH  055%=      5-min Rain = 0
KQU1 081309Z 31006KT 09/01 A2991 RMK A01 T00930006  RH  055%=      5-min Rain = 0
KQU1 081310Z 30006KT 09/01 A2991 RMK A01 T00940007  RH  055%=      5-min Rain = 0
KQU1 081311Z 31006KT 10/01 A2991 RMK A01 T00960008  RH  054%=      5-min Rain = 0
KQU1 081312Z 31006KT 10/01 A2991 RMK A01 T00980009  RH  054%=      5-min Rain = 0
KQU1 081313Z 31006KT 10/01 A2991 RMK A01 T01000009  RH  053%=      5-min Rain = 0
KQU1 081314Z 31006KT 10/01 A2991 RMK A01 T01000009  RH  053%=      5-min Rain = 0
KQU1 081315Z 31005KT 10/01 A2991 RMK A01 T01010009  RH  053%=      5-min Rain = 0
KQU1 081316Z 31006KT 10/01 A2991 RMK A01 T01010009  RH  053%=      5-min Rain = 0
KQU1 081317Z 31006KT 10/01 A2991 RMK A01 T01020009  RH  053%=      5-min Rain = 0
KQU1 081318Z 30006KT 10/01 A2991 RMK A01 T01030009  RH  052%=      5-min Rain = 0
KQU1 081319Z 30006KT 11/01 A2991 RMK A01 T01050011  RH  052%=      5-min Rain = 0
KQU1 081320Z 30006KT 11/01 A2992 RMK A01 T01070011  RH  052%=      5-min Rain = 0
KQU1 081321Z 30006KT 11/01 A2992 RMK A01 T01090011  RH  051%=      5-min Rain = 0
KQU1 081322Z 30006KT 11/01 A2992 RMK A01 T01100010  RH  050%=      5-min Rain = 0
KQU1 081323Z 31005KT 11/01 A2992 RMK A01 T01120012  RH  050%=      5-min Rain = 0
KQU1 081324Z 31004KT 11/01 A2992 RMK A01 T01130011  RH  050%=      5-min Rain = 0
KQU1 081325Z 32005KT 11/01 A2992 RMK A01 T01120011  RH  049%=      5-min Rain = 0
KQU1 081326Z 32005KT 11/01 A2992 RMK A01 T01120011  RH  050%=      5-min Rain = 0
KQU1 081327Z 31006KT 11/01 A2992 RMK A01 T01130011  RH  050%=      5-min Rain = 0
KQU1 081328Z 31006KT 11/01 A2992 RMK A01 T01140013  RH  050%=      5-min Rain = 0
KQU1 081329Z 31006KT 12/01 A2992 RMK A01 T01150011  RH  049%=      5-min Rain = 0
KQU1 081330Z 31005KT 12/01 A2992 RMK A01 T01170012  RH  049%=      5-min Rain = 0
KQU1 081331Z 31005KT 12/01 A2992 RMK A01 T01180014  RH  049%=      5-min Rain = 0
KQU1 081332Z 30005KT 12/01 A2992 RMK A01 T01200013  RH  048%=      5-min Rain = 0
KQU1 081333Z 30005KT 12/01 A2992 RMK A01 T01220013  RH  047%=      5-min Rain = 0
KQU1 081334Z 31004KT 12/01 A2992 RMK A01 T01240014  RH  047%=      5-min Rain = 0
KQU1 081335Z 31004KT 13/02 A2992 RMK A01 T01260015  RH  047%=      5-min Rain = 0
KQU1 081336Z 31003KT 13/02 A2992 RMK A01 T01270016  RH  047%=      5-min Rain = 0
KQU1 081337Z 31003KT 13/02 A2992 RMK A01 T01270018  RH  047%=      5-min Rain = 0
KQU1 081338Z 31003KT 13/02 A2992 RMK A01 T01280017  RH  047%=      5-min Rain = 0
KQU1 081339Z 30004KT 13/02 A2992 RMK A01 T01290017  RH  046%=      5-min Rain = 0
KQU1 081340Z 30004KT 13/02 A2992 RMK A01 T01290017  RH  046%=      5-min Rain = 0
KQU1 081341Z 30004KT 13/02 A2992 RMK A01 T01300016  RH  046%=      5-min Rain = 0
KQU1 081342Z 30004KT 13/02 A2992 RMK A01 T01320017  RH  046%=      5-min Rain = 0
KQU1 081343Z 30004KT 13/02 A2992 RMK A01 T01330018  RH  045%=      5-min Rain = 0
KQU1 081344Z 30004KT 14/02 A2992 RMK A01 T01350018  RH  045%=      5-min Rain = 0
KQU1 081345Z 30003KT 14/02 A2992 RMK A01 T01370018  RH  044%=      5-min Rain = 0
KQU1 081346Z 28003KT 14/02 A2992 RMK A01 T01390019  RH  044%=      5-min Rain = 0
KQU1 081347Z 26004KT 14/02 A2992 RMK A01 T01420017  RH  043%=      5-min Rain = 0
KQU1 081348Z 26006KT 14/01 A2992 RMK A01 T01440008  RH  039%=      5-min Rain = 0
KQU1 081349Z 26006KT 15/00 A2992 RMK A01 T01480000  RH  036%=      5-min Rain = 0
KQU1 081350Z 26006KT 15/00 A2992 RMK A01 T01510001  RH  036%=      5-min Rain = 0
KQU1 081351Z 25006KT 15/00 A2992 RMK A01 T015300-0  RH  035%=      5-min Rain = 0
KQU1 081352Z 25006KT 16/00 A2992 RMK A01 T015500-0  RH  035%=      5-min Rain = 0
KQU1 081353Z 24007KT 16/00 A2992 RMK A01 T01560000  RH  035%=      5-min Rain = 0
KQU1 081354Z 24007KT 16/00 A2992 RMK A01 T01560000  RH  034%=      5-min Rain = 0
KQU1 081355Z 24007KT 16/00 A2992 RMK A01 T015700-0  RH  034%=      5-min Rain = 0
KQU1 081356Z 24007KT 16/00 A2992 RMK A01 T01570001  RH  034%=      5-min Rain = 0
KQU1 081357Z 25006KT 16/00 A2992 RMK A01 T01580001  RH  034%=      5-min Rain = 0
KQU1 081358Z 24007KT 16/M00 A2992 RMK A01 T01581001  RH  034%=      5-min Rain = 0
KQU1 081359Z 24007KT 16/M00 A2992 RMK A01 T01581001  RH  034%=      5-min Rain = 0
KQU1 081400Z 24007KT 16/M00 A2992 RMK A01 T01591001  RH  034%=      5-min Rain = 0
KQU1 081401Z 24007KT 16/M00 A2992 RMK A01 T01591001  RH  033%=      5-min Rain = 0
KQU1 081402Z 24007KT 16/M00 A2992 RMK A01 T01601001  RH  034%=      5-min Rain = 0
KQU1 081403Z 24006KT 16/M00 A2992 RMK A01 T01601001  RH  033%=      5-min Rain = 0
KQU1 081404Z 23007KT 16/M00 A2992 RMK A01 T01601003  RH  033%=      5-min Rain = 0
KQU1 081405Z 25006KT 16/M00 A2992 RMK A01 T01601002  RH  033%=      5-min Rain = 0
KQU1 081406Z 25006KT 16/M00 A2992 RMK A01 T01611003  RH  033%=      5-min Rain = 0
KQU1 081407Z 24007KT 16/M00 A2992 RMK A01 T01621002  RH  033%=      5-min Rain = 0
KQU1 081408Z 24007KT 16/M00 A2992 RMK A01 T01621002  RH  033%=      5-min Rain = 0
KQU1 081409Z 25006KT 16/M00 A2992 RMK A01 T01621003  RH  032%=      5-min Rain = 0
KQU1 081410Z 25006KT 16/M00 A2992 RMK A01 T01621003  RH  032%=      5-min Rain = 0
KQU1 081411Z 25006KT 16/M00 A2992 RMK A01 T01631004  RH  032%=      5-min Rain = 0
KQU1 081412Z 24006KT 16/M00 A2992 RMK A01 T01631003  RH  032%=      5-min Rain = 0
KQU1 081413Z 24006KT 16/M01 A2992 RMK A01 T01631005  RH  032%=      5-min Rain = 0
KQU1 081414Z 25006KT 16/M01 A2992 RMK A01 T01631006  RH  032%=      5-min Rain = 0
KQU1 081415Z 24006KT 16/M00 A2992 RMK A01 T01631003  RH  032%=      5-min Rain = 0
KQU1 081416Z 25006KT 16/M00 A2992 RMK A01 T01641002  RH  032%=      5-min Rain = 0
KQU1 081417Z 25007KT 17/M00 A2992 RMK A01 T01651003  RH  032%=      5-min Rain = 0
KQU1 081418Z 26006KT 17/M01 A2992 RMK A01 T01651006  RH  031%=      5-min Rain = 0
KQU1 081419Z 26006KT 17/M00 A2992 RMK A01 T01661002  RH  032%=      5-min Rain = 0
KQU1 081420Z 26006KT 17/M00 A2992 RMK A01 T01661004  RH  031%=      5-min Rain = 0
KQU1 081421Z 23007KT 17/M01 A2992 RMK A01 T01661005  RH  031%=      5-min Rain = 0
KQU1 081422Z 24008KT 17/M01 A2992 RMK A01 T01661006  RH  031%=      5-min Rain = 0
KQU1 081423Z 23007KT 17/M01 A2992 RMK A01 T01661006  RH  031%=      5-min Rain = 0
KQU1 081424Z 24007KT 17/M00 A2992 RMK A01 T01661004  RH  031%=      5-min Rain = 0
KQU1 081425Z 24007KT 17/M01 A2992 RMK A01 T01661005  RH  031%=      5-min Rain = 0
KQU1 081426Z 25006KT 17/M01 A2992 RMK A01 T01671005  RH  031%=      5-min Rain = 0
KQU1 081427Z 25006KT 17/M01 A2992 RMK A01 T01671007  RH  031%=      5-min Rain = 0
KQU1 081428Z 25007KT 17/M00 A2992 RMK A01 T01671004  RH  031%=      5-min Rain = 0
KQU1 081429Z 25007KT 17/M01 A2992 RMK A01 T01681005  RH  031%=      5-min Rain = 0
KQU1 081430Z 24007KT 17/M01 A2992 RMK A01 T01681006  RH  031%=      5-min Rain = 0
KQU1 081431Z 23006KT 17/M01 A2992 RMK A01 T01681010  RH  030%=      5-min Rain = 0
KQU1 081432Z 24007KT 17/M01 A2992 RMK A01 T01671008  RH  030%=      5-min Rain = 0
KQU1 081433Z 26006KT 17/M01 A2992 RMK A01 T01671009  RH  030%=      5-min Rain = 0
KQU1 081434Z 25006KT 17/M01 A2992 RMK A01 T01681009  RH  030%=      5-min Rain = 0
KQU1 081435Z 26005KT 17/M01 A2992 RMK A01 T01681007  RH  030%=      5-min Rain = 0
KQU1 081436Z 25005KT 17/M00 A2992 RMK A01 T01701002  RH  031%=      5-min Rain = 0
KQU1 081437Z 24007KT 17/M01 A2992 RMK A01 T01711007  RH  030%=      5-min Rain = 0
KQU1 081438Z 23006KT 17/M01 A2992 RMK A01 T01711007  RH  030%=      5-min Rain = 0
KQU1 081439Z 24007KT 17/M01 A2992 RMK A01 T01711006  RH  030%=      5-min Rain = 0
KQU1 081440Z 24007KT 17/M01 A2992 RMK A01 T01711008  RH  030%=      5-min Rain = 0
KQU1 081441Z 24006KT 17/M01 A2991 RMK A01 T01701007  RH  030%=      5-min Rain = 0
KQU1 081442Z 25006KT 17/M01 A2991 RMK A01 T01711007  RH  030%=      5-min Rain = 0
KQU1 081443Z 26005KT 17/M01 A2991 RMK A01 T01711006  RH  030%=      5-min Rain = 0
KQU1 081444Z 25006KT 17/M01 A2991 RMK A01 T01721007  RH  030%=      5-min Rain = 0
KQU1 081445Z 26006KT 17/M01 A2991 RMK A01 T01731006  RH  030%=      5-min Rain = 0
KQU1 081446Z 23007KT 17/M01 A2991 RMK A01 T01731007  RH  029%=      5-min Rain = 0
KQU1 081447Z 23006KT 17/M01 A2991 RMK A01 T01731009  RH  029%=      5-min Rain = 0
KQU1 081448Z 23007KT 17/M01 A2991 RMK A01 T01731009  RH  029%=      5-min Rain = 0
KQU1 081449Z 23005KT 17/M01 A2991 RMK A01 T01731008  RH  029%=      5-min Rain = 0
KQU1 081450Z 24007KT 17/M00 A2991 RMK A01 T01741004  RH  030%=      5-min Rain = 0
KQU1 081451Z 22007KT 17/M01 A2991 RMK A01 T01741011  RH  028%=      5-min Rain = 0
KQU1 081452Z 22006KT 17/M01 A2991 RMK A01 T01731010  RH  029%=      5-min Rain = 0
KQU1 081453Z 22005KT 17/M01 A2991 RMK A01 T01741014  RH  028%=      5-min Rain = 0
KQU1 081454Z 24006KT 17/M01 A2991 RMK A01 T01741011  RH  029%=      5-min Rain = 0
KQU1 081455Z 24006KT 17/M01 A2991 RMK A01 T01741010  RH  029%=      5-min Rain = 0
KQU1 081456Z 25006KT 17/M01 A2991 RMK A01 T01731009  RH  029%=      5-min Rain = 0
KQU1 081457Z 25006KT 17/M01 A2991 RMK A01 T01741011  RH  029%=      5-min Rain = 0
KQU1 081458Z 25005KT 17/M01 A2991 RMK A01 T01741012  RH  028%=      5-min Rain = 0
KQU1 081459Z 24005KT 17/M01 A2991 RMK A01 T01741010  RH  029%=      5-min Rain = 0
KQU1 081500Z 22006KT 18/M01 A2991 RMK A01 T01761012  RH  028%=      5-min Rain = 0
KQU1 081501Z 22006KT 18/M01 A2991 RMK A01 T01761011  RH  028%=      5-min Rain = 0
KQU1 081502Z 22007KT 18/M01 A2991 RMK A01 T01761010  RH  028%=      5-min Rain = 0
KQU1 081503Z 22005KT 18/M01 A2991 RMK A01 T01761013  RH  028%=      5-min Rain = 0
KQU1 081504Z 22004KT 18/M01 A2991 RMK A01 T01761012  RH  028%=      5-min Rain = 0
KQU1 081505Z 24007KT 18/M01 A2991 RMK A01 T01771009  RH  028%=      5-min Rain = 0
KQU1 081506Z 24005KT 18/M01 A2991 RMK A01 T01771011  RH  028%=      5-min Rain = 0
KQU1 081507Z 25003KT 18/M01 A2991 RMK A01 T01771011  RH  028%=      5-min Rain = 0
KQU1 081508Z 25003KT 18/M01 A2991 RMK A01 T01771011  RH  028%=      5-min Rain = 0
KQU1 081509Z 23004KT 18/M01 A2991 RMK A01 T01771007  RH  029%=      5-min Rain = 0
KQU1 081510Z 22005KT 18/M01 A2991 RMK A01 T01801008  RH  028%=      5-min Rain = 0
KQU1 081511Z 21004KT 18/M01 A2991 RMK A01 T01811011  RH  027%=      5-min Rain = 0
KQU1 081512Z 23004KT 18/M01 A2991 RMK A01 T01811008  RH  028%=      5-min Rain = 0
KQU1 081513Z 25005KT 18/M01 A2991 RMK A01 T01821011  RH  027%=      5-min Rain = 0
KQU1 081514Z 25005KT 18/M01 A2991 RMK A01 T01811010  RH  027%=      5-min Rain = 0
KQU1 081515Z 26005KT 18/M01 A2991 RMK A01 T01811009  RH  028%=      5-min Rain = 0
KQU1 081516Z 26004KT 18/M01 A2991 RMK A01 T01811011  RH  027%=      5-min Rain = 0
KQU1 081517Z 24004KT 18/M01 A2991 RMK A01 T01811009  RH  027%=      5-min Rain = 0
KQU1 081518Z 21007KT 18/M01 A2991 RMK A01 T01821009  RH  027%=      5-min Rain = 0
KQU1 081519Z 21007KT 18/M01 A2991 RMK A01 T01831009  RH  027%=      5-min Rain = 0
KQU1 081520Z 20006KT 18/M01 A2991 RMK A01 T01841008  RH  027%=      5-min Rain = 0
KQU1 081521Z 20005KT 19/M01 A2991 RMK A01 T01851008  RH  027%=      5-min Rain = 0
KQU1 081522Z 23005KT 19/M01 A2991 RMK A01 T01861010  RH  027%=      5-min Rain = 0
KQU1 081523Z 23004KT 19/M01 A2991 RMK A01 T01861013  RH  026%=      5-min Rain = 0
KQU1 081524Z 22005KT 19/M01 A2991 RMK A01 T01861010  RH  027%=      5-min Rain = 0
KQU1 081525Z 21005KT 19/M01 A2991 RMK A01 T01851012  RH  026%=      5-min Rain = 0
KQU1 081526Z 21006KT 19/M01 A2991 RMK A01 T01851009  RH  027%=      5-min Rain = 0
KQU1 081527Z 21007KT 19/M01 A2991 RMK A01 T01871007  RH  027%=      5-min Rain = 0
KQU1 081528Z 21007KT 19/M01 A2991 RMK A01 T01881011  RH  026%=      5-min Rain = 0
KQU1 081529Z 21006KT 19/M01 A2991 RMK A01 T01881011  RH  026%=      5-min Rain = 0
KQU1 081530Z 21005KT 19/M01 A2991 RMK A01 T01881012  RH  026%=      5-min Rain = 0
KQU1 081531Z 22004KT 19/M01 A2991 RMK A01 T01881006  RH  027%=      5-min Rain = 0
KQU1 081532Z 21005KT 19/M01 A2991 RMK A01 T01901007  RH  026%=      5-min Rain = 0
KQU1 081533Z 19007KT 19/M01 A2991 RMK A01 T01911010  RH  026%=      5-min Rain = 0
KQU1 081534Z 18006KT 19/M01 A2991 RMK A01 T01911013  RH  025%=      5-min Rain = 0
KQU1 081535Z 20006KT 19/M01 A2991 RMK A01 T01921007  RH  026%=      5-min Rain = 0
KQU1 081536Z 20006KT 19/M01 A2991 RMK A01 T01931007  RH  026%=      5-min Rain = 0
KQU1 081537Z 20006KT 19/M01 A2991 RMK A01 T01931007  RH  026%=      5-min Rain = 0
KQU1 081538Z 22007KT 19/M01 A2991 RMK A01 T01931009  RH  026%=      5-min Rain = 0
KQU1 081539Z 23006KT 19/M01 A2991 RMK A01 T01921013  RH  025%=      5-min Rain = 0
KQU1 081540Z 25003KT 19/M01 A2991 RMK A01 T01911010  RH  026%=      5-min Rain = 0
KQU1 081541Z 22005KT 19/M01 A2991 RMK A01 T01911007  RH  026%=      5-min Rain = 0
KQU1 081542Z 23005KT 19/M01 A2991 RMK A01 T01921007  RH  026%=      5-min Rain = 0
KQU1 081543Z 20005KT 19/M00 A2991 RMK A01 T01931004  RH  027%=      5-min Rain = 0
KQU1 081544Z 21007KT 20/M01 A2991 RMK A01 T01951005  RH  026%=      5-min Rain = 0
KQU1 081545Z 22008KT 19/M01 A2991 RMK A01 T01941008  RH  025%=      5-min Rain = 0
KQU1 081546Z 21006KT 19/M01 A2991 RMK A01 T01931008  RH  026%=      5-min Rain = 0
KQU1 081547Z 21005KT 19/M01 A2991 RMK A01 T01931010  RH  025%=      5-min Rain = 0
KQU1 081548Z 23005KT 19/M01 A2991 RMK A01 T01931006  RH  026%=      5-min Rain = 0
KQU1 081549Z 21006KT 19/M00 A2991 RMK A01 T01931002  RH  027%=      5-min Rain = 0
KQU1 081550Z 20008KT 20/M00 A2991 RMK A01 T01951004  RH  026%=      5-min Rain = 0
KQU1 081551Z 19006KT 20/M01 A2991 RMK A01 T01961011  RH  025%=      5-min Rain = 0
KQU1 081552Z 21004KT 20/M01 A2991 RMK A01 T01951010  RH  025%=      5-min Rain = 0
KQU1 081553Z 23007KT 20/M01 A2991 RMK A01 T01951006  RH  026%=      5-min Rain = 0
KQU1 081554Z 24006KT 20/M01 A2991 RMK A01 T01951010  RH  025%=      5-min Rain = 0
KQU1 081555Z 24005KT 20/M01 A2991 RMK A01 T01961006  RH  026%=      5-min Rain = 0
KQU1 081556Z 18007KT 20/M01 A299 RMK A01 T01971009  RH  025%=      5-min Rain = 0
KQU1 081557Z 19006KT 20/M01 A299 RMK A01 T01991010  RH  025%=      5-min Rain = 0
KQU1 081558Z 22006KT 20/M01 A299 RMK A01 T01991008  RH  025%=      5-min Rain = 0
KQU1 081559Z 23007KT 20/M01 A299 RMK A01 T02001010  RH  024%=      5-min Rain = 0
KQU1 081600Z 22005KT 20/M01 A299 RMK A01 T02001010  RH  024%=      5-min Rain = 0
KQU1 081601Z 19006KT 20/M01 A299 RMK A01 T02011006  RH  025%=      5-min Rain = 0
KQU1 081602Z 19007KT 20/M02 A299 RMK A01 T02031016  RH  023%=      5-min Rain = 0
KQU1 081603Z 20005KT 20/M02 A299 RMK A01 T02031017  RH  023%=      5-min Rain = 0
KQU1 081604Z 19006KT 20/M01 A299 RMK A01 T02031009  RH  024%=      5-min Rain = 0
KQU1 081605Z 20009KT 20/M02 A299 RMK A01 T02041015  RH  023%=      5-min Rain = 0
KQU1 081606Z 19008KT 20/M02 A299 RMK A01 T02041017  RH  023%=      5-min Rain = 0
KQU1 081607Z 18008KT 20/M02 A299 RMK A01 T02031015  RH  023%=      5-min Rain = 0
KQU1 081608Z 18007KT 20/M02 A299 RMK A01 T02041016  RH  023%=      5-min Rain = 0
KQU1 081609Z 17007KT 21/M01 A299 RMK A01 T02051012  RH  023%=      5-min Rain = 0
KQU1 081610Z 17007KT 21/M02 A299 RMK A01 T02061016  RH  022%=      5-min Rain = 0
KQU1 081611Z 18008KT 21/M01 A299 RMK A01 T02061011  RH  023%=      5-min Rain = 0
KQU1 081612Z 17007KT 21/M02 A299 RMK A01 T02071016  RH  022%=      5-min Rain = 0
KQU1 081613Z 16005KT 21/M01 A299 RMK A01 T02071013  RH  023%=      5-min Rain = 0
KQU1 081614Z 18004KT 21/M01 A299 RMK A01 T02071014  RH  023%=      5-min Rain = 0
KQU1 081615Z 19006KT 21/M01 A299 RMK A01 T02081008  RH  024%=      5-min Rain = 0
KQU1 081616Z 21009KT 21/M01 A299 RMK A01 T02091013  RH  023%=      5-min Rain = 0
KQU1 081617Z 20008KT 21/M03 A299 RMK A01 T02091028  RH  020%=      5-min Rain = 0
KQU1 081618Z 20005KT 21/M03 A299 RMK A01 T02061027  RH  021%=      5-min Rain = 0
KQU1 081619Z 22004KT 21/M02 A299 RMK A01 T02051024  RH  021%=      5-min Rain = 0
KQU1 081620Z 22006KT 21/M02 A299 RMK A01 T02061020  RH  022%=      5-min Rain = 0
KQU1 081621Z 19006KT 21/M02 A299 RMK A01 T02071020  RH  022%=      5-min Rain = 0
KQU1 081622Z 21009KT 21/M02 A299 RMK A01 T02081015  RH  022%=      5-min Rain = 0
KQU1 081623Z 21011KT 21/M02 A299 RMK A01 T02101018  RH  022%=      5-min Rain = 0
KQU1 081624Z 21009KT 21/M02 A299 RMK A01 T02081020  RH  021%=      5-min Rain = 0
KQU1 081625Z 20008KT 21/M02 A299 RMK A01 T02071017  RH  022%=      5-min Rain = 0
KQU1 081626Z 21005KT 21/M02 A299 RMK A01 T02071018  RH  022%=      5-min Rain = 0
KQU1 081627Z 20007KT 21/M02 A2989 RMK A01 T02071018  RH  022%=      5-min Rain = 0
KQU1 081628Z 18007KT 21/M02 A2989 RMK A01 T02071019  RH  022%=      5-min Rain = 0
KQU1 081629Z 16003KT 21/M03 A2989 RMK A01 T02071030  RH  020%=      5-min Rain = 0
KQU1 081630Z 22002KT 21/M03 A2989 RMK A01 T02071029  RH  020%=      5-min Rain = 0
KQU1 081631Z 22003KT 21/M03 A2989 RMK A01 T02071025  RH  021%=      5-min Rain = 0
KQU1 081632Z 18007KT 21/M02 A2989 RMK A01 T02071016  RH  022%=      5-min Rain = 0
KQU1 081633Z 20008KT 21/M02 A2989 RMK A01 T02091018  RH  022%=      5-min Rain = 0
KQU1 081634Z 21007KT 21/M02 A2989 RMK A01 T02091021  RH  021%=      5-min Rain = 0
KQU1 081635Z 20004KT 21/M02 A2989 RMK A01 T02071022  RH  021%=      5-min Rain = 0
KQU1 081636Z 18004KT 21/M02 A2989 RMK A01 T02081021  RH  021%=      5-min Rain = 0
KQU1 081637Z 16004KT 21/M02 A2989 RMK A01 T02091017  RH  022%=      5-min Rain = 0
KQU1 081638Z 20006KT 21/M02 A2989 RMK A01 T02111018  RH  022%=      5-min Rain = 0
KQU1 081639Z 21006KT 21/M02 A2989 RMK A01 T02111020  RH  021%=      5-min Rain = 0
KQU1 081640Z 19008KT 21/M02 A2989 RMK A01 T02111019  RH  021%=      5-min Rain = 0
KQU1 081641Z 18010KT 21/M02 A2989 RMK A01 T02111018  RH  021%=      5-min Rain = 0
KQU1 081642Z 18011KT 21/M02 A2989 RMK A01 T02121018  RH  021%=      5-min Rain = 0
KQU1 081643Z 18009KT 21/M02 A2989 RMK A01 T02121019  RH  021%=      5-min Rain = 0
KQU1 081644Z 18009KT 21/M02 A2989 RMK A01 T02131019  RH  021%=      5-min Rain = 0
KQU1 081645Z 19006KT 21/M02 A2989 RMK A01 T02121023  RH  021%=      5-min Rain = 0
KQU1 081646Z 22003KT 21/M02 A2989 RMK A01 T02101018  RH  022%=      5-min Rain = 0
KQU1 081647Z 17004KT 21/M01 A2988 RMK A01 T02111012  RH  022%=      5-min Rain = 0
KQU1 081648Z 16006KT 21/M01 A2988 RMK A01 T02131014  RH  022%=      5-min Rain = 0
KQU1 081649Z 15004KT 21/M02 A2988 RMK A01 T02141021  RH  021%=      5-min Rain = 0
KQU1 081650Z 15005KT 21/M01 A2988 RMK A01 T02131010  RH  022%=      5-min Rain = 0
KQU1 081651Z 17006KT 22/M01 A2988 RMK A01 T02151014  RH  021%=      5-min Rain = 0
KQU1 081652Z 21006KT 22/M02 A2988 RMK A01 T02161016  RH  021%=      5-min Rain = 0
KQU1 081653Z 21004KT 21/M02 A2988 RMK A01 T02141017  RH  021%=      5-min Rain = 0
KQU1 081654Z 14004KT 21/M02 A2988 RMK A01 T02141017  RH  021%=      5-min Rain = 0
KQU1 081655Z 16007KT 21/M02 A2988 RMK A01 T02141015  RH  022%=      5-min Rain = 0
KQU1 081656Z 17008KT 21/M02 A2988 RMK A01 T02141019  RH  021%=      5-min Rain = 0
KQU1 081657Z 16007KT 22/M01 A2988 RMK A01 T02151013  RH  022%=      5-min Rain = 0
KQU1 081658Z 17006KT 22/M02 A2988 RMK A01 T02161019  RH  021%=      5-min Rain = 0
KQU1 081659Z 19005KT 22/M02 A2988 RMK A01 T02171018  RH  021%=      5-min Rain = 0
KQU1 081700Z 25005KT 22/M02 A2988 RMK A01 T02181021  RH  020%=      5-min Rain = 0
KQU1 081701Z 24005KT 22/M02 A2988 RMK A01 T02171020  RH  020%=      5-min Rain = 0
KQU1 081702Z 21005KT 22/M01 A2988 RMK A01 T02171011  RH  022%=      5-min Rain = 0
KQU1 081703Z 23010KT 22/M02 A2988 RMK A01 T02201021  RH  020%=      5-min Rain = 0
KQU1 081704Z 24009KT 22/M03 A2987 RMK A01 T02161025  RH  020%=      5-min Rain = 0
KQU1 081705Z 23007KT 21/M02 A2987 RMK A01 T02131022  RH  021%=      5-min Rain = 0
KQU1 081706Z 22006KT 21/M02 A2988 RMK A01 T02131023  RH  020%=      5-min Rain = 0
KQU1 081707Z 20010KT 21/M02 A2988 RMK A01 T02121021  RH  021%=      5-min Rain = 0
KQU1 081708Z 20009KT 21/M02 A2988 RMK A01 T02141016  RH  021%=      5-min Rain = 0
KQU1 081709Z 21009KT 22/M02 A2988 RMK A01 T02161022  RH  020%=      5-min Rain = 0
KQU1 081710Z 20009KT 22/M02 A2988 RMK A01 T02151022  RH  020%=      5-min Rain = 0
KQU1 081711Z 23008KT 22/M02 A2988 RMK A01 T02151023  RH  020%=      5-min Rain = 0
KQU1 081712Z 23005KT 21/M02 A2987 RMK A01 T02141024  RH  020%=      5-min Rain = 0
KQU1 081713Z 20006KT 21/M02 A2987 RMK A01 T02141018  RH  021%=      5-min Rain = 0
KQU1 081714Z 19007KT 22/M02 A2987 RMK A01 T02171016  RH  021%=      5-min Rain = 0
KQU1 081715Z 17006KT 22/M02 A2987 RMK A01 T02191018  RH  020%=      5-min Rain = 0
KQU1 081716Z 18012KT 22/M02 A2987 RMK A01 T02211016  RH  020%=      5-min Rain = 0
KQU1 081717Z 18010KT 22/M02 A2987 RMK A01 T02221020  RH  020%=      5-min Rain = 0
KQU1 081718Z 18008KT 22/M02 A2987 RMK A01 T02221022  RH  019%=      5-min Rain = 0
KQU1 081719Z 17009KT 22/M02 A2987 RMK A01 T02211018  RH  020%=      5-min Rain = 0
KQU1 081720Z 16008KT 22/M02 A2987 RMK A01 T02211021  RH  020%=      5-min Rain = 0
KQU1 081721Z 16007KT 22/M02 A2987 RMK A01 T02211017  RH  020%=      5-min Rain = 0
KQU1 081722Z 16005KT 22/M02 A2987 RMK A01 T02221019  RH  020%=      5-min Rain = 0
KQU1 081723Z 21008KT 22/M02 A2987 RMK A01 T02231015  RH  020%=      5-min Rain = 0
KQU1 081724Z 22008KT 22/M03 A2987 RMK A01 T02231025  RH  019%=      5-min Rain = 0
KQU1 081725Z 24009KT 22/M02 A2987 RMK A01 T02211024  RH  019%=      5-min Rain = 0
KQU1 081726Z 24007KT 22/M03 A2987 RMK A01 T02181028  RH  019%=      5-min Rain = 0
KQU1 081727Z 22004KT 22/M03 A2987 RMK A01 T02161025  RH  020%=      5-min Rain = 0
KQU1 081728Z 22002KT 22/M03 A2987 RMK A01 T02161028  RH  019%=      5-min Rain = 0
KQU1 081729Z 24002KT 22/M03 A2987 RMK A01 T02171027  RH  019%=      5-min Rain = 0
KQU1 081730Z 21008KT 22/M02 A2987 RMK A01 T02171023  RH  020%=      5-min Rain = 0
KQU1 081731Z 23009KT 22/M02 A2987 RMK A01 T02201019  RH  020%=      5-min Rain = 0
KQU1 081732Z 23008KT 22/M03 A2987 RMK A01 T02221029  RH  019%=      5-min Rain = 0
KQU1 081733Z 20007KT 22/M03 A2987 RMK A01 T02201026  RH  019%=      5-min Rain = 0
KQU1 081734Z 20008KT 22/M02 A2987 RMK A01 T02201023  RH  020%=      5-min Rain = 0
KQU1 081735Z 20006KT 22/M03 A2987 RMK A01 T02201029  RH  019%=      5-min Rain = 0
KQU1 081736Z 18003KT 22/M02 A2987 RMK A01 T02201021  RH  020%=      5-min Rain = 0
KQU1 081737Z 19004KT 22/M02 A2987 RMK A01 T02221021  RH  020%=      5-min Rain = 0
KQU1 081738Z 24007KT 22/M02 A2987 RMK A01 T02231023  RH  019%=      5-min Rain = 0
KQU1 081739Z 24006KT 22/M03 A2986 RMK A01 T02231026  RH  019%=      5-min Rain = 0
KQU1 081740Z 25005KT 22/M03 A2986 RMK A01 T02211029  RH  019%=      5-min Rain = 0
KQU1 081741Z 25004KT 22/M03 A2986 RMK A01 T02181028  RH  019%=      5-min Rain = 0
KQU1 081742Z 23007KT 22/M02 A2986 RMK A01 T02181023  RH  020%=      5-min Rain = 0
KQU1 081743Z 21009KT 22/M02 A2986 RMK A01 T02201022  RH  020%=      5-min Rain = 0
KQU1 081744Z 19007KT 22/M02 A2986 RMK A01 T02211023  RH  019%=      5-min Rain = 0
KQU1 081745Z 20006KT 22/M03 A2986 RMK A01 T02221026  RH  019%=      5-min Rain = 0
KQU1 081746Z 22002KT 22/M03 A2986 RMK A01 T02221025  RH  019%=      5-min Rain = 0
KQU1 081747Z 23002KT 22/M03 A2986 RMK A01 T02221026  RH  019%=      5-min Rain = 0
KQU1 081748Z 23004KT 22/M02 A2986 RMK A01 T02221023  RH  019%=      5-min Rain = 0
KQU1 081749Z 19010G15KT 22/M02 A2986 RMK A01 T02231018  RH  020%=      5-min Rain = 0
KQU1 081750Z 19012KT 22/M03 A2986 RMK A01 T02241025  RH  019%=      5-min Rain = 0
KQU1 081751Z 18009KT 22/M02 A2986 RMK A01 T02241020  RH  019%=      5-min Rain = 0
KQU1 081752Z 19008KT 23/M02 A2986 RMK A01 T02261021  RH  019%=      5-min Rain = 0
KQU1 081753Z 19007KT 23/M02 A2986 RMK A01 T02281023  RH  019%=      5-min Rain = 0
KQU1 081754Z 17008KT 23/M03 A2986 RMK A01 T02281025  RH  018%=      5-min Rain = 0
KQU1 081755Z 18006KT 23/M03 A2986 RMK A01 T02281025  RH  018%=      5-min Rain = 0
KQU1 081756Z 16006KT 23/M02 A2986 RMK A01 T02281024  RH  018%=      5-min Rain = 0
KQU1 081757Z 15006KT 23/M03 A2986 RMK A01 T02281028  RH  018%=      5-min Rain = 0
KQU1 081758Z 19004KT 23/M03 A2986 RMK A01 T02251026  RH  018%=      5-min Rain = 0
KQU1 081759Z 16001KT 23/M02 A2986 RMK A01 T02251023  RH  019%=      5-min Rain = 0
KQU1 081800Z 19006G11KT 23/M02 A2986 RMK A01 T02271019  RH  019%=      5-min Rain = 0
KQU1 081801Z 21011KT 23/M03 A2986 RMK A01 T02281026  RH  018%=      5-min Rain = 0
KQU1 081802Z 22011KT 23/M02 A2986 RMK A01 T02281024  RH  019%=      5-min Rain = 0
KQU1 081803Z 21006KT 23/M03 A2986 RMK A01 T02271028  RH  018%=      5-min Rain = 0
KQU1 081804Z 22003KT 23/M03 A2986 RMK A01 T02261029  RH  018%=      5-min Rain = 0
KQU1 081805Z 22001KT 23/M03 A2985 RMK A01 T02261026  RH  018%=      5-min Rain = 0
KQU1 081806Z 22002KT 23/M03 A2985 RMK A01 T02271026  RH  018%=      5-min Rain = 0
KQU1 081807Z 18004KT 23/M02 A2985 RMK A01 T02291021  RH  019%=      5-min Rain = 0
KQU1 081808Z 22006KT 23/M03 A2985 RMK A01 T02301025  RH  018%=      5-min Rain = 0
KQU1 081809Z 17010KT 23/M02 A2985 RMK A01 T02311019  RH  019%=      5-min Rain = 0
KQU1 081810Z 16009KT 23/M02 A2985 RMK A01 T02321018  RH  019%=      5-min Rain = 0
KQU1 081811Z 16012KT 23/M02 A2985 RMK A01 T02331021  RH  018%=      5-min Rain = 0
KQU1 081812Z 16009KT 23/M02 A2985 RMK A01 T02321023  RH  018%=      5-min Rain = 0
KQU1 081813Z 15006KT 23/M02 A2985 RMK A01 T02321020  RH  019%=      5-min Rain = 0
KQU1 081814Z 17007KT 23/M02 A2985 RMK A01 T02311019  RH  019%=      5-min Rain = 0
KQU1 081815Z 18011KT 23/M02 A2985 RMK A01 T02331018  RH  019%=      5-min Rain = 0
KQU1 081816Z 21011KT 23/M03 A2985 RMK A01 T02331027  RH  017%=      5-min Rain = 0
KQU1 081817Z 21010KT 23/M02 A2985 RMK A01 T02321023  RH  018%=      5-min Rain = 0
KQU1 081818Z 23008KT 23/M03 A2985 RMK A01 T02321027  RH  018%=      5-min Rain = 0
KQU1 081819Z 24005KT 23/M03 A2985 RMK A01 T02301028  RH  018%=      5-min Rain = 0
KQU1 081820Z 21003KT 23/M03 A2985 RMK A01 T02301028  RH  018%=      5-min Rain = 0
KQU1 081821Z 21009KT 23/M02 A2985 RMK A01 T02301023  RH  018%=      5-min Rain = 0
KQU1 081822Z 21009KT 23/M02 A2985 RMK A01 T02301024  RH  018%=      5-min Rain = 0
KQU1 081823Z 23006KT 23/M03 A2985 RMK A01 T02301025  RH  018%=      5-min Rain = 0
KQU1 081824Z 22008KT 23/M02 A2984 RMK A01 T02311020  RH  019%=      5-min Rain = 0
KQU1 081825Z 20007KT 23/M03 A2984 RMK A01 T02321025  RH  018%=      5-min Rain = 0
KQU1 081826Z 19007KT 23/M02 A2984 RMK A01 T02321018  RH  019%=      5-min Rain = 0
KQU1 081827Z 18008KT 23/M02 A2984 RMK A01 T02341020  RH  018%=      5-min Rain = 0
KQU1 081828Z 19012KT 23/M02 A2984 RMK A01 T02341023  RH  018%=      5-min Rain = 0
KQU1 081829Z 20009KT 23/M03 A2984 RMK A01 T02331025  RH  018%=      5-min Rain = 0
KQU1 081830Z 18010KT 23/M02 A2984 RMK A01 T02321023  RH  018%=      5-min Rain = 0
KQU1 081831Z 18008KT 23/M02 A2984 RMK A01 T02321021  RH  018%=      5-min Rain = 0
KQU1 081832Z 18007G12KT 23/M02 A2984 RMK A01 T02331020  RH  018%=      5-min Rain = 0
KQU1 081833Z 18011KT 24/M02 A2984 RMK A01 T02351023  RH  018%=      5-min Rain = 0
KQU1 081834Z 18010KT 24/M03 A2984 RMK A01 T02351026  RH  018%=      5-min Rain = 0
KQU1 081835Z 17007KT 24/M03 A2984 RMK A01 T02351027  RH  017%=      5-min Rain = 0
KQU1 081836Z 19005KT 24/M03 A2983 RMK A01 T02351026  RH  017%=      5-min Rain = 0
KQU1 081837Z 20008KT 24/M02 A2984 RMK A01 T02371020  RH  018%=      5-min Rain = 0
KQU1 081838Z 20008KT 24/M03 A2984 RMK A01 T02381031  RH  017%=      5-min Rain = 0
KQU1 081839Z 21005KT 24/M03 A2983 RMK A01 T02361031  RH  017%=      5-min Rain = 0
KQU1 081840Z 20006KT 24/M02 A2983 RMK A01 T02361020  RH  018%=      5-min Rain = 0
KQU1 081841Z 18004KT 24/M03 A2983 RMK A01 T02381030  RH  017%=      5-min Rain = 0
KQU1 081842Z 21006KT 24/M03 A2983 RMK A01 T02381026  RH  017%=      5-min Rain = 0
KQU1 081843Z 22007KT 24/M03 A2983 RMK A01 T02391027  RH  017%=      5-min Rain = 0
KQU1 081844Z 22005KT 24/M04 A2983 RMK A01 T02391036  RH  016%=      5-min Rain = 0
KQU1 081845Z 23008KT 24/M03 A2983 RMK A01 T02391030  RH  017%=      5-min Rain = 0
KQU1 081846Z 22011KT 24/M03 A2983 RMK A01 T02391031  RH  016%=      5-min Rain = 0
KQU1 081847Z 21010KT 24/M03 A2983 RMK A01 T02421029  RH  016%=      5-min Rain = 0
KQU1 081848Z 20006KT 24/M03 A2983 RMK A01 T02421034  RH  016%=      5-min Rain = 0
KQU1 081849Z 20008KT 24/M03 A2983 RMK A01 T02401032  RH  016%=      5-min Rain = 0
KQU1 081850Z 20009G14KT 24/M03 A2983 RMK A01 T02391028  RH  017%=      5-min Rain = 0
KQU1 081851Z 20016KT 24/M03 A2982 RMK A01 T02391029  RH  017%=      5-min Rain = 0
KQU1 081852Z 20012KT 24/M03 A2983 RMK A01 T02391027  RH  017%=      5-min Rain = 0
KQU1 081853Z 19008KT 24/M03 A2983 RMK A01 T02391033  RH  016%=      5-min Rain = 0
KQU1 081854Z 18009KT 24/M03 A2982 RMK A01 T02381031  RH  017%=      5-min Rain = 0
KQU1 081855Z 17007KT 24/M03 A2982 RMK A01 T02381033  RH  016%=      5-min Rain = 0
KQU1 081856Z 18007KT 24/M03 A2982 RMK A01 T02381028  RH  017%=      5-min Rain = 0
KQU1 081857Z 19010KT 24/M03 A2982 RMK A01 T02401027  RH  017%=      5-min Rain = 0
KQU1 081858Z 18010KT 24/M03 A2982 RMK A01 T02421028  RH  016%=      5-min Rain = 0
KQU1 081859Z 18012KT 24/M03 A2982 RMK A01 T02431028  RH  016%=      5-min Rain = 0
KQU1 081900Z 19012KT 24/M03 A2982 RMK A01 T02441029  RH  016%=      5-min Rain = 0
KQU1 081901Z 19011KT 24/M03 A2982 RMK A01 T02441032  RH  016%=      5-min Rain = 0
KQU1 081902Z 20009KT 24/M03 A2982 RMK A01 T02441030  RH  016%=      5-min Rain = 0
KQU1 081903Z 19008KT 24/M03 A2982 RMK A01 T02431029  RH  016%=      5-min Rain = 0
KQU1 081904Z 20013KT 24/M03 A2982 RMK A01 T02441028  RH  016%=      5-min Rain = 0
KQU1 081905Z 19013KT 24/M03 A2982 RMK A01 T02441030  RH  016%=      5-min Rain = 0
KQU1 081906Z 18009KT 24/M03 A2982 RMK A01 T02431028  RH  016%=      5-min Rain = 0
KQU1 081907Z 17008KT 24/M03 A2981 RMK A01 T02431028  RH  016%=      5-min Rain = 0
KQU1 081908Z 16008G13KT 24/M03 A2981 RMK A01 T02441025  RH  017%=      5-min Rain = 0
KQU1 081909Z 17012KT 25/M02 A2981 RMK A01 T02461022  RH  017%=      5-min Rain = 0
KQU1 081910Z 18011KT 25/M03 A2981 RMK A01 T02481028  RH  016%=      5-min Rain = 0
KQU1 081911Z 20011KT 25/M03 A2981 RMK A01 T02491025  RH  016%=      5-min Rain = 0
KQU1 081912Z 19014KT 25/M03 A2981 RMK A01 T02481030  RH  016%=      5-min Rain = 0
KQU1 081913Z 19011KT 25/M03 A2981 RMK A01 T02451031  RH  016%=      5-min Rain = 0
KQU1 081914Z 19015KT 24/M03 A2981 RMK A01 T02441027  RH  017%=      5-min Rain = 0
KQU1 081915Z 22014KT 25/M03 A2981 RMK A01 T02461033  RH  016%=      5-min Rain = 0
KQU1 081916Z 21013KT 25/M04 A2981 RMK A01 T02461036  RH  015%=      5-min Rain = 0
KQU1 081917Z 21011KT 24/M04 A2981 RMK A01 T02441037  RH  015%=      5-min Rain = 0
KQU1 081918Z 21011KT 24/M04 A2981 RMK A01 T02441036  RH  015%=      5-min Rain = 0
KQU1 081919Z 20011KT 24/M03 A2981 RMK A01 T02441033  RH  016%=      5-min Rain = 0
KQU1 081920Z 22011KT 25/M04 A2981 RMK A01 T02451038  RH  015%=      5-min Rain = 0
KQU1 081921Z 20008KT 25/M03 A298 RMK A01 T02451034  RH  016%=      5-min Rain = 0
KQU1 081922Z 22007KT 25/M03 A298 RMK A01 T02471031  RH  016%=      5-min Rain = 0
KQU1 081923Z 21009KT 25/M04 A298 RMK A01 T02491041  RH  014%=      5-min Rain = 0
KQU1 081924Z 19007KT 25/M04 A298 RMK A01 T02471041  RH  015%=      5-min Rain = 0
KQU1 081925Z 19008KT 25/M04 A298 RMK A01 T02471040  RH  015%=      5-min Rain = 0
KQU1 081926Z 17006KT 25/M04 A298 RMK A01 T02471043  RH  014%=      5-min Rain = 0
KQU1 081927Z 18006KT 25/M04 A298 RMK A01 T02461043  RH  014%=      5-min Rain = 0
KQU1 081928Z 22010KT 25/M04 A298 RMK A01 T02471039  RH  015%=      5-min Rain = 0
KQU1 081929Z 23009KT 25/M04 A298 RMK A01 T02491038  RH  015%=      5-min Rain = 0
KQU1 081930Z 25007KT 25/M04 A298 RMK A01 T02491041  RH  014%=      5-min Rain = 0
KQU1 081931Z 24006KT 25/M04 A298 RMK A01 T02481042  RH  014%=      5-min Rain = 0
KQU1 081932Z 18003KT 25/M05 A298 RMK A01 T02481047  RH  014%=      5-min Rain = 0
KQU1 081933Z 07002KT 25/M05 A298 RMK A01 T02461045  RH  014%=      5-min Rain = 0
KQU1 081934Z 08001KT 25/M05 A298 RMK A01 T02461045  RH  014%=      5-min Rain = 0
KQU1 081935Z 24005G10KT 25/M04 A298 RMK A01 T02471041  RH  014%=      5-min Rain = 0
KQU1 081936Z 24007KT 25/M04 A298 RMK A01 T02471043  RH  014%=      5-min Rain = 0
KQU1 081937Z 24004KT 25/M05 A298 RMK A01 T02471048  RH  014%=      5-min Rain = 0
KQU1 081938Z 22008G14KT 25/M04 A298 RMK A01 T02471037  RH  015%=      5-min Rain = 0
KQU1 081939Z 22010KT 25/M04 A298 RMK A01 T02481035  RH  015%=      5-min Rain = 0
KQU1 081940Z 21009KT 25/M04 A298 RMK A01 T02481038  RH  015%=      5-min Rain = 0
KQU1 081941Z 21008KT 25/M03 A298 RMK A01 T02461034  RH  015%=      5-min Rain = 0
KQU1 081942Z 23008KT 25/M04 A2979 RMK A01 T02471037  RH  015%=      5-min Rain = 0
KQU1 081943Z 23004KT 25/M04 A2979 RMK A01 T02461039  RH  015%=      5-min Rain = 0
KQU1 081944Z 22005KT 25/M03 A2979 RMK A01 T02471033  RH  016%=      5-min Rain = 0
KQU1 081945Z 26005KT 25/M04 A2979 RMK A01 T02481037  RH  015%=      5-min Rain = 0
KQU1 081946Z 24007KT 25/M04 A2979 RMK A01 T02471043  RH  014%=      5-min Rain = 0
KQU1 081947Z 20004KT 25/M03 A2979 RMK A01 T02471032  RH  015%=      5-min Rain = 0
KQU1 081948Z 17006KT 25/M03 A2979 RMK A01 T02491028  RH  016%=      5-min Rain = 0
KQU1 081949Z 20009KT 25/M04 A2979 RMK A01 T02511036  RH  015%=      5-min Rain = 0
KQU1 081950Z 23012KT 25/M04 A2979 RMK A01 T02531043  RH  014%=      5-min Rain = 0
KQU1 081951Z 23011KT 25/M05 A2979 RMK A01 T02531049  RH  013%=      5-min Rain = 0
KQU1 081952Z 23009KT 25/M05 A2979 RMK A01 T02531046  RH  014%=      5-min Rain = 0
KQU1 081953Z 22007KT 25/M05 A2979 RMK A01 T02531047  RH  013%=      5-min Rain = 0
KQU1 081954Z 20006KT 25/M05 A2979 RMK A01 T02521049  RH  013%=      5-min Rain = 0
KQU1 081955Z 19004KT 25/M04 A2979 RMK A01 T02511044  RH  014%=      5-min Rain = 0
KQU1 081956Z 26006KT 25/M04 A2979 RMK A01 T02521044  RH  014%=      5-min Rain = 0
KQU1 081957Z 22011KT 25/M05 A2979 RMK A01 T02541047  RH  013%=      5-min Rain = 0
KQU1 081958Z 21009KT 25/M05 A2979 RMK A01 T02521047  RH  013%=      5-min Rain = 0
KQU1 081959Z 22009KT 25/M04 A2979 RMK A01 T02511043  RH  014%=      5-min Rain = 0
KQU1 082000Z 24007KT 25/M05 A2979 RMK A01 T02511046  RH  014%=      5-min Rain = 0
KQU1 082001Z 27004KT 25/M05 A2979 RMK A01 T02501046  RH  014%=      5-min Rain = 0
KQU1 082002Z 30004KT 25/M05 A2979 RMK A01 T02491047  RH  014%=      5-min Rain = 0
KQU1 082003Z 30004KT 25/M05 A2978 RMK A01 T02481049  RH  014%=      5-min Rain = 0
KQU1 082004Z 33003KT 25/M05 A2978 RMK A01 T02481049  RH  014%=      5-min Rain = 0
KQU1 082005Z 23002KT 25/M04 A2978 RMK A01 T02501041  RH  014%=      5-min Rain = 0
KQU1 082006Z 22006KT 25/M05 A2978 RMK A01 T02521048  RH  013%=      5-min Rain = 0
KQU1 082007Z 24004KT 25/M05 A2978 RMK A01 T02511047  RH  014%=      5-min Rain = 0
KQU1 082008Z 26006KT 25/M05 A2978 RMK A01 T02501049  RH  013%=      5-min Rain = 0
KQU1 082009Z 24003KT 25/M05 A2978 RMK A01 T02491046  RH  014%=      5-min Rain = 0
KQU1 082010Z 23004KT 25/M04 A2978 RMK A01 T02501043  RH  014%=      5-min Rain = 0
KQU1 082011Z 23008G14KT 25/M04 A2978 RMK A01 T02531044  RH  014%=      5-min Rain = 0
KQU1 082012Z 25009KT 25/M05 A2978 RMK A01 T02521050  RH  013%=      5-min Rain = 0
KQU1 082013Z 25008KT 25/M05 A2978 RMK A01 T02521047  RH  013%=      5-min Rain = 0
KQU1 082014Z 23011G16KT 25/M05 A2978 RMK A01 T02541046  RH  013%=      5-min Rain = 0
KQU1 082015Z 23009KT 25/M05 A2978 RMK A01 T02541049  RH  013%=      5-min Rain = 0
KQU1 082016Z 25008KT 26/M05 A2977 RMK A01 T02551049  RH  013%=      5-min Rain = 0
KQU1 082017Z 21008KT 26/M05 A2977 RMK A01 T02551051  RH  013%=      5-min Rain = 0
KQU1 082018Z 19008KT 26/M05 A2977 RMK A01 T02551050  RH  013%=      5-min Rain = 0
KQU1 082019Z 17006KT 26/M05 A2977 RMK A01 T02551051  RH  013%=      5-min Rain = 0
KQU1 082020Z 18003KT 26/M05 A2977 RMK A01 T02551052  RH  013%=      5-min Rain = 0
KQU1 082021Z 19004KT 26/M05 A2977 RMK A01 T02551051  RH  013%=      5-min Rain = 0
KQU1 082022Z 20010KT 26/M04 A2977 RMK A01 T02561040  RH  014%=      5-min Rain = 0
KQU1 082023Z 23014KT 26/M05 A2977 RMK A01 T02591045  RH  013%=      5-min Rain = 0
KQU1 082024Z 22009G15KT 26/M05 A2977 RMK A01 T02601047  RH  013%=      5-min Rain = 0
KQU1 082025Z 20009KT 26/M04 A2977 RMK A01 T02591042  RH  013%=      5-min Rain = 0
KQU1 082026Z 19009KT 26/M04 A2977 RMK A01 T02581042  RH  013%=      5-min Rain = 0
KQU1 082027Z 18007KT 26/M04 A2977 RMK A01 T02581040  RH  014%=      5-min Rain = 0
KQU1 082028Z 20009KT 26/M04 A2977 RMK A01 T02581041  RH  014%=      5-min Rain = 0
KQU1 082029Z 26011G16KT 26/M04 A2976 RMK A01 T02601041  RH  013%=      5-min Rain = 0
KQU1 082030Z 26012G17KT 26/M05 A2976 RMK A01 T02601052  RH  012%=      5-min Rain = 0
KQU1 082031Z 25011KT 26/M05 A2976 RMK A01 T02601047  RH  013%=      5-min Rain = 0
KQU1 082032Z 25012KT 26/M05 A2976 RMK A01 T02601053  RH  012%=      5-min Rain = 0
KQU1 082033Z 24006KT 26/M05 A2976 RMK A01 T02571051  RH  013%=      5-min Rain = 0
KQU1 082034Z 26005KT 26/M05 A2976 RMK A01 T02571050  RH  013%=      5-min Rain = 0
KQU1 082035Z 21006G11KT 26/M05 A2976 RMK A01 T02581045  RH  013%=      5-min Rain = 0
KQU1 082036Z 20011KT 26/M04 A2976 RMK A01 T02601036  RH  014%=      5-min Rain = 0
KQU1 082037Z 20013KT 26/M04 A2976 RMK A01 T02611044  RH  013%=      5-min Rain = 0
KQU1 082038Z 20005G11KT 26/M05 A2976 RMK A01 T02581049  RH  013%=      5-min Rain = 0
KQU1 082039Z 19007KT 26/M05 A2976 RMK A01 T02561045  RH  013%=      5-min Rain = 0
KQU1 082040Z 18010KT 26/M04 A2976 RMK A01 T02571036  RH  014%=      5-min Rain = 0
KQU1 082041Z 23010KT 26/M05 A2976 RMK A01 T02601049  RH  013%=      5-min Rain = 0
KQU1 082042Z 22009KT 26/M05 A2976 RMK A01 T02591047  RH  013%=      5-min Rain = 0
KQU1 082043Z 23006KT 26/M05 A2976 RMK A01 T02611048  RH  013%=      5-min Rain = 0
KQU1 082044Z 23010KT 26/M05 A2975 RMK A01 T02621048  RH  013%=      5-min Rain = 0
KQU1 082045Z 24010KT 26/M05 A2975 RMK A01 T02621046  RH  013%=      5-min Rain = 0
KQU1 082046Z 24011KT 26/M05 A2975 RMK A01 T02631052  RH  012%=      5-min Rain = 0
KQU1 082047Z 23010KT 26/M05 A2975 RMK A01 T02631053  RH  012%=      5-min Rain = 0
KQU1 082048Z 25010KT 26/M06 A2975 RMK A01 T02621055  RH  012%=      5-min Rain = 0
KQU1 082049Z 26006KT 26/M06 A2975 RMK A01 T02601056  RH  012%=      5-min Rain = 0
KQU1 082050Z 23007KT 26/M05 A2975 RMK A01 T02591053  RH  012%=      5-min Rain = 0
KQU1 082051Z 24010KT 26/M05 A2975 RMK A01 T02601050  RH  013%=      5-min Rain = 0
KQU1 082052Z 25006KT 26/M05 A2975 RMK A01 T02591052  RH  012%=      5-min Rain = 0
KQU1 082053Z 24005KT 26/M05 A2975 RMK A01 T02591050  RH  013%=      5-min Rain = 0
KQU1 082054Z 26009KT 26/M06 A2975 RMK A01 T02601056  RH  012%=      5-min Rain = 0
KQU1 082055Z 25007KT 26/M06 A2975 RMK A01 T02611055  RH  012%=      5-min Rain = 0
KQU1 082056Z 25007KT 26/M06 A2975 RMK A01 T02621055  RH  012%=      5-min Rain = 0
KQU1 082057Z 22008KT 26/M05 A2975 RMK A01 T02641045  RH  013%=      5-min Rain = 0
KQU1 082058Z 20008KT 27/M05 A2975 RMK A01 T02651045  RH  013%=      5-min Rain = 0
KQU1 082059Z 20008KT 27/M05 A2975 RMK A01 T02661047  RH  012%=      5-min Rain = 0
KQU1 082100Z 21005KT 27/M05 A2974 RMK A01 T02651048  RH  012%=      5-min Rain = 0
KQU1 082101Z 23008KT 26/M05 A2974 RMK A01 T02641048  RH  012%=      5-min Rain = 0
KQU1 082102Z 24007KT 26/M05 A2974 RMK A01 T02631049  RH  012%=      5-min Rain = 0
KQU1 082103Z 25007KT 26/M05 A2974 RMK A01 T02631048  RH  013%=      5-min Rain = 0
KQU1 082104Z 25008KT 26/M05 A2974 RMK A01 T02631049  RH  012%=      5-min Rain = 0
KQU1 082105Z 24009KT 26/M05 A2974 RMK A01 T02621049  RH  012%=      5-min Rain = 0
KQU1 082106Z 23007KT 26/M05 A2974 RMK A01 T02631049  RH  012%=      5-min Rain = 0
KQU1 082107Z 22009KT 27/M04 A2974 RMK A01 T02651043  RH  013%=      5-min Rain = 0
KQU1 082108Z 21011KT 27/M05 A2974 RMK A01 T02671048  RH  012%=      5-min Rain = 0
KQU1 082109Z 21010KT 27/M05 A2974 RMK A01 T02651047  RH  013%=      5-min Rain = 0
KQU1 082110Z 21010KT 27/M05 A2974 RMK A01 T02651050  RH  012%=      5-min Rain = 0
KQU1 082111Z 20012KT 26/M05 A2974 RMK A01 T02641053  RH  012%=      5-min Rain = 0
KQU1 082112Z 20010KT 27/M05 A2974 RMK A01 T02651052  RH  012%=      5-min Rain = 0
KQU1 082113Z 20012KT 27/M05 A2974 RMK A01 T02651054  RH  012%=      5-min Rain = 0
KQU1 082114Z 19011KT 26/M06 A2974 RMK A01 T02641057  RH  012%=      5-min Rain = 0
KQU1 082115Z 19009KT 26/M05 A2974 RMK A01 T02631050  RH  012%=      5-min Rain = 0
KQU1 082116Z 21008KT 27/M05 A2974 RMK A01 T02651049  RH  012%=      5-min Rain = 0
KQU1 082117Z 21008KT 27/M05 A2974 RMK A01 T02671050  RH  012%=      5-min Rain = 0
KQU1 082118Z 22006KT 27/M05 A2974 RMK A01 T02661054  RH  012%=      5-min Rain = 0
KQU1 082119Z 22005KT 27/M05 A2974 RMK A01 T02651052  RH  012%=      5-min Rain = 0
KQU1 082120Z 22006KT 27/M05 A2973 RMK A01 T02661047  RH  012%=      5-min Rain = 0
KQU1 082121Z 23005KT 27/M05 A2973 RMK A01 T02681050  RH  012%=      5-min Rain = 0
KQU1 082122Z 30008KT 27/M05 A2973 RMK A01 T02691051  RH  012%=      5-min Rain = 0
KQU1 082123Z 28007KT 27/M05 A2973 RMK A01 T02681053  RH  012%=      5-min Rain = 0
KQU1 082124Z 28008KT 27/M05 A2973 RMK A01 T02671051  RH  012%=      5-min Rain = 0
KQU1 082125Z 24009KT 27/M05 A2973 RMK A01 T02691047  RH  012%=      5-min Rain = 0
KQU1 082126Z 25008KT 27/M05 A2973 RMK A01 T02711052  RH  012%=      5-min Rain = 0
KQU1 082127Z 28007KT 27/M06 A2973 RMK A01 T02711063  RH  011%=      5-min Rain = 0
KQU1 082128Z 30007KT 27/M07 A2973 RMK A01 T02701068  RH  010%=      5-min Rain = 0
KQU1 082129Z 31007KT 27/M07 A2973 RMK A01 T02691070  RH  010%=      5-min Rain = 0
KQU1 082130Z 32008KT 27/M07 A2973 RMK A01 T02691069  RH  010%=      5-min Rain = 0
KQU1 082131Z 33007KT 27/M07 A2973 RMK A01 T02701072  RH  010%=      5-min Rain = 0
KQU1 082132Z 33004KT 27/M08 A2973 RMK A01 T02681079  RH  010%=      5-min Rain = 0
KQU1 082133Z 34005KT 27/M08 A2973 RMK A01 T02681075  RH  010%=      5-min Rain = 0
KQU1 082134Z 35004KT 27/M08 A2973 RMK A01 T02671078  RH  010%=      5-min Rain = 0
KQU1 082135Z 35003KT 27/M08 A2973 RMK A01 T02661076  RH  010%=      5-min Rain = 0
KQU1 082136Z 33003KT 27/M07 A2973 RMK A01 T02661070  RH  010%=      5-min Rain = 0
KQU1 082137Z 23003KT 27/M07 A2973 RMK A01 T02681068  RH  010%=      5-min Rain = 0
KQU1 082138Z 23006KT 27/M06 A2973 RMK A01 T02681055  RH  012%=      5-min Rain = 0
KQU1 082139Z 24006KT 27/M06 A2973 RMK A01 T02681059  RH  011%=      5-min Rain = 0
KQU1 082140Z 23008KT 27/M05 A2973 RMK A01 T02691053  RH  012%=      5-min Rain = 0
KQU1 082141Z 23010KT 27/M06 A2973 RMK A01 T02701063  RH  011%=      5-min Rain = 0
KQU1 082142Z 22007KT 27/M06 A2973 RMK A01 T02691063  RH  011%=      5-min Rain = 0
KQU1 082143Z 22009KT 27/M06 A2973 RMK A01 T02681061  RH  011%=      5-min Rain = 0
KQU1 082144Z 22011KT 27/M06 A2973 RMK A01 T02681062  RH  011%=      5-min Rain = 0
KQU1 082145Z 23011KT 27/M07 A2973 RMK A01 T02671065  RH  011%=      5-min Rain = 0
KQU1 082146Z 25012KT 27/M07 A2973 RMK A01 T02671068  RH  011%=      5-min Rain = 0
KQU1 082147Z 25012KT 27/M08 A2973 RMK A01 T02661079  RH  010%=      5-min Rain = 0
KQU1 082148Z 25010KT 27/M08 A2973 RMK A01 T02651078  RH  010%=      5-min Rain = 0
KQU1 082149Z 26009KT 27/M08 A2973 RMK A01 T02651075  RH  010%=      5-min Rain = 0
KQU1 082150Z 26009KT 27/M08 A2973 RMK A01 T02651075  RH  010%=      5-min Rain = 0
KQU1 082151Z 27011KT 27/M07 A2973 RMK A01 T02651072  RH  010%=      5-min Rain = 0
KQU1 082152Z 27009KT 27/M07 A2973 RMK A01 T02661067  RH  011%=      5-min Rain = 0
KQU1 082153Z 25004KT 27/M07 A2972 RMK A01 T02661073  RH  010%=      5-min Rain = 0
KQU1 082154Z 27008KT 27/M07 A2973 RMK A01 T02661069  RH  011%=      5-min Rain = 0
KQU1 082155Z 28007KT 27/M07 A2972 RMK A01 T02651070  RH  010%=      5-min Rain = 0
KQU1 082156Z 27008KT 27/M07 A2972 RMK A01 T02651067  RH  011%=      5-min Rain = 0
KQU1 082157Z 28008KT 27/M07 A2972 RMK A01 T02651067  RH  011%=      5-min Rain = 0
KQU1 082158Z 29007KT 26/M07 A2972 RMK A01 T02641068  RH  011%=      5-min Rain = 0
KQU1 082159Z 29007KT 26/M07 A2972 RMK A01 T02641067  RH  011%=      5-min Rain = 0
KQU1 082200Z 28006KT 26/M07 A2972 RMK A01 T02641067  RH  011%=      5-min Rain = 0
KQU1 082201Z 29005KT 26/M07 A2972 RMK A01 T02641070  RH  011%=      5-min Rain = 0
KQU1 082202Z 27003KT 26/M07 A2972 RMK A01 T02641068  RH  011%=      5-min Rain = 0
KQU1 082203Z 26003KT 26/M07 A2972 RMK A01 T02641069  RH  011%=      5-min Rain = 0
KQU1 082204Z 29004KT 27/M07 A2972 RMK A01 T02651070  RH  011%=      5-min Rain = 0
KQU1 082205Z 27004KT 27/M07 A2972 RMK A01 T02651068  RH  011%=      5-min Rain = 0
KQU1 082206Z 25003KT 27/M06 A2972 RMK A01 T02661064  RH  011%=      5-min Rain = 0
KQU1 082207Z 25008KT 27/M06 A2972 RMK A01 T02681064  RH  011%=      5-min Rain = 0
KQU1 082208Z 28011KT 27/M06 A2972 RMK A01 T02681062  RH  011%=      5-min Rain = 0
KQU1 082209Z 28010KT 27/M07 A2972 RMK A01 T02681065  RH  011%=      5-min Rain = 0
KQU1 082210Z 26010KT 27/M06 A2972 RMK A01 T02691063  RH  011%=      5-min Rain = 0
KQU1 082211Z 27010KT 27/M07 A2972 RMK A01 T02681067  RH  010%=      5-min Rain = 0
KQU1 082212Z 29006KT 27/M06 A2972 RMK A01 T02681064  RH  011%=      5-min Rain = 0
KQU1 082213Z 33005KT 27/M06 A2972 RMK A01 T02681063  RH  011%=      5-min Rain = 0
KQU1 082214Z 31004KT 27/M06 A2972 RMK A01 T02701058  RH  011%=      5-min Rain = 0
KQU1 082215Z 31007KT 27/M06 A2972 RMK A01 T02721064  RH  011%=      5-min Rain = 0
KQU1 082216Z 31006KT 27/M07 A2972 RMK A01 T02711071  RH  010%=      5-min Rain = 0
KQU1 082217Z 29004KT 27/M07 A2972 RMK A01 T02711068  RH  010%=      5-min Rain = 0
KQU1 082218Z 30006KT 27/M06 A2972 RMK A01 T02731061  RH  011%=      5-min Rain = 0
KQU1 082219Z 29006KT 27/M07 A2972 RMK A01 T02731069  RH  010%=      5-min Rain = 0
KQU1 082220Z 30006KT 27/M07 A2972 RMK A01 T02711070  RH  010%=      5-min Rain = 0
KQU1 082221Z 27004KT 27/M07 A2972 RMK A01 T02691070  RH  010%=      5-min Rain = 0
KQU1 082222Z 26002KT 27/M07 A2971 RMK A01 T02691072  RH  010%=      5-min Rain = 0
KQU1 082223Z 32003KT 27/M07 A2971 RMK A01 T02691066  RH  011%=      5-min Rain = 0
KQU1 082224Z 27003KT 27/M07 A2971 RMK A01 T02681071  RH  010%=      5-min Rain = 0
KQU1 082225Z 23003KT 27/M07 A2971 RMK A01 T02691069  RH  010%=      5-min Rain = 0
KQU1 082226Z 23003KT 27/M06 A2971 RMK A01 T02701063  RH  011%=      5-min Rain = 0
KQU1 082227Z 22006G11KT 27/M06 A2971 RMK A01 T02711060  RH  011%=      5-min Rain = 0
KQU1 082228Z 20009KT 27/M06 A2971 RMK A01 T02711060  RH  011%=      5-min Rain = 0
KQU1 082229Z 19005KT 27/M07 A2971 RMK A01 T02711065  RH  010%=      5-min Rain = 0
KQU1 082230Z 18007KT 27/M06 A2971 RMK A01 T02701057  RH  011%=      5-min Rain = 0
KQU1 082231Z 19008KT 27/M06 A2971 RMK A01 T02711062  RH  011%=      5-min Rain = 0
KQU1 082232Z 20007KT 27/M06 A2971 RMK A01 T02701061  RH  011%=      5-min Rain = 0
KQU1 082233Z 23009KT 27/M06 A2971 RMK A01 T02701062  RH  011%=      5-min Rain = 0
KQU1 082234Z 25007KT 27/M06 A2971 RMK A01 T02691064  RH  011%=      5-min Rain = 0
KQU1 082235Z 24005KT 27/M07 A2971 RMK A01 T02691066  RH  011%=      5-min Rain = 0
KQU1 082236Z 24005KT 27/M07 A2971 RMK A01 T02681065  RH  011%=      5-min Rain = 0
KQU1 082237Z 23008KT 27/M06 A2971 RMK A01 T02681059  RH  011%=      5-min Rain = 0
KQU1 082238Z 21008KT 27/M06 A2971 RMK A01 T02691064  RH  011%=      5-min Rain = 0
KQU1 082239Z 22006KT 27/M06 A2971 RMK A01 T02681061  RH  011%=      5-min Rain = 0
KQU1 082240Z 24005KT 27/M07 A2971 RMK A01 T02671065  RH  011%=      5-min Rain = 0
KQU1 082241Z 24005KT 27/M06 A2971 RMK A01 T02671062  RH  011%=      5-min Rain = 0
KQU1 082242Z 23009KT 27/M06 A2971 RMK A01 T02671062  RH  011%=      5-min Rain = 0
KQU1 082243Z 24003KT 27/M06 A2971 RMK A01 T02681060  RH  011%=      5-min Rain = 0
KQU1 082244Z 25005KT 27/M06 A2971 RMK A01 T02691064  RH  011%=      5-min Rain = 0
KQU1 082245Z 24006KT 27/M07 A2971 RMK A01 T02691065  RH  011%=      5-min Rain = 0
KQU1 082246Z 24008KT 27/M07 A2971 RMK A01 T02691065  RH  011%=      5-min Rain = 0
KQU1 082247Z 29009KT 27/M07 A2971 RMK A01 T02701070  RH  010%=      5-min Rain = 0
KQU1 082248Z 29009KT 27/M07 A2971 RMK A01 T02701069  RH  010%=      5-min Rain = 0
KQU1 082249Z 31010KT 27/M07 A2971 RMK A01 T02691072  RH  010%=      5-min Rain = 0
KQU1 082250Z 29009KT 27/M08 A2971 RMK A01 T02681076  RH  010%=      5-min Rain = 0
KQU1 082251Z 30008KT 27/M07 A2971 RMK A01 T02671073  RH  010%=      5-min Rain = 0
KQU1 082252Z 30008KT 27/M07 A2971 RMK A01 T02671072  RH  010%=      5-min Rain = 0
KQU1 082253Z 29006KT 27/M07 A2971 RMK A01 T02671066  RH  011%=      5-min Rain = 0
KQU1 082254Z 30006KT 27/M07 A2971 RMK A01 T02681068  RH  010%=      5-min Rain = 0
KQU1 082255Z 32008KT 27/M07 A2971 RMK A01 T02681071  RH  010%=      5-min Rain = 0
KQU1 082256Z 30006KT 27/M07 A2971 RMK A01 T02681069  RH  010%=      5-min Rain = 0
KQU1 082257Z 28004KT 27/M07 A2971 RMK A01 T02691066  RH  011%=      5-min Rain = 0
KQU1 082258Z 28006KT 27/M07 A2971 RMK A01 T02691073  RH  010%=      5-min Rain = 0
KQU1 082259Z 29005KT 27/M07 A2971 RMK A01 T02691073  RH  010%=      5-min Rain = 0
KQU1 082300Z 28007KT 27/M08 A2971 RMK A01 T02691075  RH  010%=      5-min Rain = 0
KQU1 082301Z 26009KT 27/M07 A2971 RMK A01 T02681072  RH  010%=      5-min Rain = 0
KQU1 082302Z 25005KT 27/M07 A2971 RMK A01 T02681072  RH  010%=      5-min Rain = 0
KQU1 082303Z 22005KT 27/M07 A2971 RMK A01 T02691066  RH  011%=      5-min Rain = 0
KQU1 082304Z 23008KT 27/M07 A2971 RMK A01 T02691068  RH  010%=      5-min Rain = 0
KQU1 082305Z 24006KT 27/M08 A2971 RMK A01 T02691075  RH  010%=      5-min Rain = 0
KQU1 082306Z 25005KT 27/M08 A2971 RMK A01 T02681075  RH  010%=      5-min Rain = 0
KQU1 082307Z 24005KT 27/M07 A2971 RMK A01 T02681068  RH  010%=      5-min Rain = 0
KQU1 082308Z 24006KT 27/M07 A2971 RMK A01 T02691073  RH  010%=      5-min Rain = 0
KQU1 082309Z 26007KT 27/M07 A2971 RMK A01 T02691067  RH  010%=      5-min Rain = 0
KQU1 082310Z 27008KT 27/M07 A2971 RMK A01 T02691073  RH  010%=      5-min Rain = 0
KQU1 082311Z 28007KT 27/M07 A2971 RMK A01 T02691067  RH  011%=      5-min Rain = 0
KQU1 082312Z 26006KT 27/M07 A2971 RMK A01 T02691068  RH  010%=      5-min Rain = 0
KQU1 082313Z 25009KT 27/M07 A2971 RMK A01 T02691067  RH  010%=      5-min Rain = 0
KQU1 082314Z 26006KT 27/M07 A297 RMK A01 T02691071  RH  010%=      5-min Rain = 0
KQU1 082315Z 25006KT 27/M07 A297 RMK A01 T02681066  RH  011%=      5-min Rain = 0
KQU1 082316Z 24008KT 27/M08 A297 RMK A01 T02681075  RH  010%=      5-min Rain = 0
KQU1 082317Z 26006KT 27/M08 A297 RMK A01 T02671076  RH  010%=      5-min Rain = 0
KQU1 082318Z 25007G12KT 27/M08 A297 RMK A01 T02671077  RH  010%=      5-min Rain = 0
KQU1 082319Z 25010KT 27/M08 A297 RMK A01 T02661075  RH  010%=      5-min Rain = 0
KQU1 082320Z 24007KT 27/M07 A297 RMK A01 T02671073  RH  010%=      5-min Rain = 0
KQU1 082321Z 23006KT 27/M07 A297 RMK A01 T02671072  RH  010%=      5-min Rain = 0
KQU1 082322Z 24008KT 27/M07 A297 RMK A01 T02671074  RH  010%=      5-min Rain = 0
KQU1 082323Z 25010KT 27/M08 A297 RMK A01 T02671079  RH  010%=      5-min Rain = 0
KQU1 082324Z 24008KT 27/M08 A297 RMK A01 T02661079  RH  010%=      5-min Rain = 0
KQU1 082325Z 25008KT 27/M08 A297 RMK A01 T02661079  RH  010%=      5-min Rain = 0
KQU1 082326Z 28006KT 27/M07 A297 RMK A01 T02661073  RH  010%=      5-min Rain = 0
KQU1 082327Z 28007KT 27/M08 A297 RMK A01 T02661081  RH  010%=      5-min Rain = 0
KQU1 082328Z 27005KT 27/M08 A297 RMK A01 T02651080  RH  010%=      5-min Rain = 0
KQU1 082329Z 26006KT 27/M07 A297 RMK A01 T02651074  RH  010%=      5-min Rain = 0
KQU1 082330Z 24006KT 27/M08 A297 RMK A01 T02661076  RH  010%=      5-min Rain = 0
KQU1 082331Z 24006KT 27/M07 A297 RMK A01 T02661074  RH  010%=      5-min Rain = 0
KQU1 082332Z 24006KT 27/M08 A297 RMK A01 T02661078  RH  010%=      5-min Rain = 0
KQU1 082333Z 25005KT 27/M08 A297 RMK A01 T02661075  RH  010%=      5-min Rain = 0
KQU1 082334Z 23005KT 27/M08 A297 RMK A01 T02671076  RH  010%=      5-min Rain = 0
KQU1 082335Z 24007KT 27/M07 A297 RMK A01 T02671072  RH  010%=      5-min Rain = 0
KQU1 082336Z 25007KT 27/M07 A297 RMK A01 T02661073  RH  010%=      5-min Rain = 0
KQU1 082337Z 24006KT 27/M07 A297 RMK A01 T02661072  RH  010%=      5-min Rain = 0
KQU1 082338Z 24005KT 27/M07 A297 RMK A01 T02661066  RH  011%=      5-min Rain = 0
KQU1 082339Z 24006KT 27/M07 A297 RMK A01 T02661072  RH  010%=      5-min Rain = 0
KQU1 082340Z 24005KT 27/M07 A297 RMK A01 T02661066  RH  011%=      5-min Rain = 0
KQU1 082341Z 24005KT 27/M07 A2969 RMK A01 T02661073  RH  010%=      5-min Rain = 0
KQU1 082342Z 23007KT 27/M07 A2969 RMK A01 T02661065  RH  011%=      5-min Rain = 0
KQU1 082343Z 24007KT 27/M07 A2969 RMK A01 T02661069  RH  010%=      5-min Rain = 0
KQU1 082344Z 26008KT 27/M07 A2969 RMK A01 T02661072  RH  010%=      5-min Rain = 0
KQU1 082345Z 26007KT 27/M07 A2969 RMK A01 T02661072  RH  010%=      5-min Rain = 0
KQU1 082346Z 26007KT 27/M07 A2969 RMK A01 T02661068  RH  011%=      5-min Rain = 0
KQU1 082347Z 27008KT 27/M07 A2969 RMK A01 T02661069  RH  011%=      5-min Rain = 0
KQU1 082348Z 28007KT 27/M07 A2969 RMK A01 T02651071  RH  010%=      5-min Rain = 0
KQU1 082349Z 27006KT 27/M07 A2969 RMK A01 T02651067  RH  011%=      5-min Rain = 0
KQU1 082350Z 26007KT 27/M07 A2969 RMK A01 T02651067  RH  011%=      5-min Rain = 0
KQU1 082351Z 26007KT 26/M07 A2969 RMK A01 T02641069  RH  011%=      5-min Rain = 0
KQU1 082352Z 27006KT 26/M07 A2969 RMK A01 T02641066  RH  011%=      5-min Rain = 0
KQU1 082353Z 28005KT 26/M07 A2969 RMK A01 T02641068  RH  011%=      5-min Rain = 0
KQU1 082354Z 27005KT 26/M07 A2969 RMK A01 T02631073  RH  010%=      5-min Rain = 0
KQU1 082355Z 28004KT 26/M07 A2969 RMK A01 T02631073  RH  010%=      5-min Rain = 0
KQU1 082356Z 25005KT 26/M07 A2969 RMK A01 T02631074  RH  010%=      5-min Rain = 0
KQU1 082357Z 23005KT 26/M08 A2969 RMK A01 T02631076  RH  010%=      5-min Rain = 0
KQU1 082358Z 25004KT 26/M08 A2969 RMK A01 T02641075  RH  010%=      5-min Rain = 0
KQU1 082359Z 23004KT 26/M07 A2969 RMK A01 T02641066  RH  011%=      5-min Rain = 0
KQU1 090000Z 24004KT 26/M07 A2969 RMK A01 T02641065  RH  011%=      5-min Rain = 0
KQU1 090001Z 23004KT 26/M06 A2969 RMK A01 T02631062  RH  011%=      5-min Rain = 0
KQU1 090002Z 22003KT 26/M06 A2969 RMK A01 T02631058  RH  012%=      5-min Rain = 0
KQU1 090003Z 22004KT 26/M05 A2969 RMK A01 T02631048  RH  012%=      5-min Rain = 0
KQU1 090004Z 22004KT 26/M07 A2969 RMK A01 T02621070  RH  011%=      5-min Rain = 0
KQU1 090005Z 22003KT 26/M06 A2968 RMK A01 T02621059  RH  012%=      5-min Rain = 0
KQU1 090006Z 20004KT 26/M05 A2968 RMK A01 T02621054  RH  012%=      5-min Rain = 0
KQU1 090007Z 20005KT 26/M05 A2968 RMK A01 T02611054  RH  012%=      5-min Rain = 0
KQU1 090008Z 21004KT 26/M05 A2968 RMK A01 T02601054  RH  012%=      5-min Rain = 0
KQU1 090009Z 21004KT 26/M05 A2968 RMK A01 T02591049  RH  013%=      5-min Rain = 0
KQU1 090010Z 21005KT 26/M05 A2968 RMK A01 T02581050  RH  013%=      5-min Rain = 0
KQU1 090011Z 20005KT 26/M05 A2968 RMK A01 T02571050  RH  013%=      5-min Rain = 0
KQU1 090012Z 21005KT 26/M05 A2968 RMK A01 T02571054  RH  012%=      5-min Rain = 0
KQU1 090013Z 21005KT 26/M06 A2968 RMK A01 T02561056  RH  012%=      5-min Rain = 0
KQU1 090014Z 20006KT 26/M06 A2968 RMK A01 T02561059  RH  012%=      5-min Rain = 0
KQU1 090015Z 18006KT 26/M06 A2968 RMK A01 T02561057  RH  012%=      5-min Rain = 0
KQU1 090016Z 18006KT 26/M06 A2968 RMK A01 T02551059  RH  012%=      5-min Rain = 0
KQU1 090017Z 19006KT 26/M06 A2967 RMK A01 T02551057  RH  012%=      5-min Rain = 0
KQU1 090018Z 19007KT 25/M06 A2967 RMK A01 T02541059  RH  012%=      5-min Rain = 0
KQU1 090019Z 19008KT 25/M06 A2967 RMK A01 T02531064  RH  012%=      5-min Rain = 0
KQU1 090020Z 19007KT 25/M07 A2967 RMK A01 T02541065  RH  012%=      5-min Rain = 0
KQU1 090021Z 18006KT 25/M06 A2967 RMK A01 T02531060  RH  012%=      5-min Rain = 0
KQU1 090022Z 18006KT 25/M06 A2967 RMK A01 T02531055  RH  013%=      5-min Rain = 0
KQU1 090023Z 18006KT 25/M05 A2967 RMK A01 T02521049  RH  013%=      5-min Rain = 0
KQU1 090024Z 18007KT 25/M05 A2967 RMK A01 T02501047  RH  014%=      5-min Rain = 0
KQU1 090025Z 19007KT 25/M04 A2967 RMK A01 T02481044  RH  014%=      5-min Rain = 0
KQU1 090026Z 19007KT 25/M04 A2967 RMK A01 T02461044  RH  014%=      5-min Rain = 0
KQU1 090027Z 20007KT 25/M05 A2967 RMK A01 T02451049  RH  014%=      5-min Rain = 0
KQU1 090028Z 19006KT 24/M05 A2967 RMK A01 T02441047  RH  014%=      5-min Rain = 0
KQU1 090029Z 19008KT 24/M05 A2967 RMK A01 T02441048  RH  014%=      5-min Rain = 0
KQU1 090030Z 19008KT 24/M05 A2967 RMK A01 T02441050  RH  014%=      5-min Rain = 0
KQU1 090031Z 19008KT 24/M05 A2967 RMK A01 T02441051  RH  014%=      5-min Rain = 0
KQU1 090032Z 19007KT 24/M05 A2967 RMK A01 T02441051  RH  014%=      5-min Rain = 0
KQU1 090033Z 18007KT 24/M05 A2967 RMK A01 T02441050  RH  014%=      5-min Rain = 0
KQU1 090034Z 18007KT 24/M05 A2967 RMK A01 T02441050  RH  014%=      5-min Rain = 0
KQU1 090035Z 18008KT 24/M05 A2967 RMK A01 T02431050  RH  014%=      5-min Rain = 0
KQU1 090036Z 18009KT 24/M05 A2967 RMK A01 T02421051  RH  014%=      5-min Rain = 0
KQU1 090037Z 18009KT 24/M05 A2967 RMK A01 T02411051  RH  014%=      5-min Rain = 0
KQU1 090038Z 18009KT 24/M05 A2967 RMK A01 T02411050  RH  014%=      5-min Rain = 0
KQU1 090039Z 18009KT 24/M05 A2967 RMK A01 T02401049  RH  014%=      5-min Rain = 0
KQU1 090040Z 18009KT 24/M05 A2967 RMK A01 T02391049  RH  014%=      5-min Rain = 0
KQU1 090041Z 19008KT 24/M05 A2967 RMK A01 T02391047  RH  014%=      5-min Rain = 0
KQU1 090042Z 19007KT 24/M05 A2967 RMK A01 T02391045  RH  015%=      5-min Rain = 0
KQU1 090043Z 18008KT 24/M05 A2967 RMK A01 T02381046  RH  015%=      5-min Rain = 0
KQU1 090044Z 18009KT 24/M04 A2967 RMK A01 T02371044  RH  015%=      5-min Rain = 0
KQU1 090045Z 18008KT 24/M04 A2967 RMK A01 T02361042  RH  015%=      5-min Rain = 0
KQU1 090046Z 19008KT 24/M04 A2967 RMK A01 T02351042  RH  016%=      5-min Rain = 0
KQU1 090047Z 19008KT 23/M04 A2967 RMK A01 T02331042  RH  016%=      5-min Rain = 0
KQU1 090048Z 19008KT 23/M04 A2967 RMK A01 T02321042  RH  016%=      5-min Rain = 0
KQU1 090049Z 19007KT 23/M04 A2967 RMK A01 T02311041  RH  016%=      5-min Rain = 0
KQU1 090050Z 19007KT 23/M04 A2967 RMK A01 T02301039  RH  016%=      5-min Rain = 0
KQU1 090051Z 19006KT 23/M04 A2967 RMK A01 T02291039  RH  016%=      5-min Rain = 0
KQU1 090052Z 19006KT 23/M04 A2967 RMK A01 T02271038  RH  017%=      5-min Rain = 0
KQU1 090053Z 19006KT 23/M04 A2967 RMK A01 T02261039  RH  017%=      5-min Rain = 0
KQU1 090054Z 19007KT 23/M04 A2967 RMK A01 T02251039  RH  017%=      5-min Rain = 0
KQU1 090055Z 20006KT 22/M04 A2967 RMK A01 T02241037  RH  017%=      5-min Rain = 0
KQU1 090056Z 19006KT 22/M04 A2967 RMK A01 T02221038  RH  017%=      5-min Rain = 0
KQU1 090057Z 20006KT 22/M04 A2967 RMK A01 T02211038  RH  017%=      5-min Rain = 0
KQU1 090058Z 20006KT 22/M04 A2967 RMK A01 T02201038  RH  017%=      5-min Rain = 0
KQU1 090059Z 20005KT 22/M04 A2966 RMK A01 T02191037  RH  018%=      5-min Rain = 0
KQU1 090100Z 20006KT 22/M04 A2966 RMK A01 T02181038  RH  018%=      5-min Rain = 0
KQU1 090101Z 20005KT 22/M04 A2966 RMK A01 T02181037  RH  018%=      5-min Rain = 0
KQU1 090102Z 20006KT 22/M04 A2966 RMK A01 T02171039  RH  018%=      5-min Rain = 0
KQU1 090103Z 20006KT 22/M04 A2966 RMK A01 T02171038  RH  018%=      5-min Rain = 0
KQU1 090104Z 20006KT 22/M04 A2966 RMK A01 T02171039  RH  018%=      5-min Rain = 0
KQU1 090105Z 20006KT 22/M04 A2966 RMK A01 T02161038  RH  018%=      5-min Rain = 0
KQU1 090106Z 20007KT 22/M04 A2966 RMK A01 T02161037  RH  018%=      5-min Rain = 0
KQU1 090107Z 20006KT 22/M04 A2966 RMK A01 T02151037  RH  018%=      5-min Rain = 0
KQU1 090108Z 20007KT 21/M04 A2966 RMK A01 T02141036  RH  018%=      5-min Rain = 0
KQU1 090109Z 20006KT 21/M04 A2966 RMK A01 T02131035  RH  019%=      5-min Rain = 0
KQU1 090110Z 20006KT 21/M04 A2966 RMK A01 T02121035  RH  019%=      5-min Rain = 0
KQU1 090111Z 20006KT 21/M03 A2966 RMK A01 T02111034  RH  019%=      5-min Rain = 0
KQU1 090112Z 20007KT 21/M03 A2966 RMK A01 T02111034  RH  019%=      5-min Rain = 0
KQU1 090113Z 20006KT 21/M03 A2966 RMK A01 T02091033  RH  019%=      5-min Rain = 0
KQU1 090114Z 21007KT 21/M03 A2966 RMK A01 T02081032  RH  020%=      5-min Rain = 0
KQU1 090115Z 21007KT 21/M03 A2966 RMK A01 T02071031  RH  020%=      5-min Rain = 0
KQU1 090116Z 21007KT 21/M03 A2966 RMK A01 T02051030  RH  020%=      5-min Rain = 0
KQU1 090117Z 21007KT 20/M03 A2966 RMK A01 T02031029  RH  021%=      5-min Rain = 0
KQU1 090118Z 21007KT 20/M03 A2966 RMK A01 T02011030  RH  021%=      5-min Rain = 0
KQU1 090119Z 21006KT 20/M03 A2966 RMK A01 T02001031  RH  021%=      5-min Rain = 0
KQU1 090120Z 21007KT 20/M03 A2966 RMK A01 T01991031  RH  021%=      5-min Rain = 0
KQU1 090121Z 21007KT 20/M03 A2966 RMK A01 T01991031  RH  021%=      5-min Rain = 0
KQU1 090122Z 21007KT 20/M03 A2966 RMK A01 T01981031  RH  021%=      5-min Rain = 0
KQU1 090123Z 22007KT 20/M03 A2966 RMK A01 T01971032  RH  021%=      5-min Rain = 0
KQU1 090124Z 21008KT 20/M03 A2966 RMK A01 T01971032  RH  021%=      5-min Rain = 0
KQU1 090125Z 21008KT 20/M03 A2966 RMK A01 T01961032  RH  021%=      5-min Rain = 0
KQU1 090126Z 21007KT 20/M03 A2966 RMK A01 T01951031  RH  021%=      5-min Rain = 0
KQU1 090127Z 21007KT 19/M03 A2966 RMK A01 T01941032  RH  021%=      5-min Rain = 0
KQU1 090128Z 21007KT 19/M03 A2966 RMK A01 T01931032  RH  021%=      5-min Rain = 0
KQU1 090129Z 21007KT 19/M03 A2966 RMK A01 T01931033  RH  021%=      5-min Rain = 0
KQU1 090130Z 22007KT 19/M03 A2966 RMK A01 T01921033  RH  021%=      5-min Rain = 0
KQU1 090131Z 22007KT 19/M03 A2966 RMK A01 T01921034  RH  021%=      5-min Rain = 0
KQU1 090132Z 22007KT 19/M03 A2966 RMK A01 T01911034  RH  022%=      5-min Rain = 0
KQU1 090133Z 22007KT 19/M03 A2966 RMK A01 T01901033  RH  022%=      5-min Rain = 0
KQU1 090134Z 22007KT 19/M03 A2966 RMK A01 T01891033  RH  022%=      5-min Rain = 0
KQU1 090135Z 22007KT 19/M03 A2966 RMK A01 T01881033  RH  022%=      5-min Rain = 0
KQU1 090136Z 22007KT 19/M04 A2966 RMK A01 T01881035  RH  022%=      5-min Rain = 0
KQU1 090137Z 22008KT 19/M04 A2966 RMK A01 T01881035  RH  022%=      5-min Rain = 0
KQU1 090138Z 22008KT 19/M04 A2966 RMK A01 T01891036  RH  022%=      5-min Rain = 0
KQU1 090139Z 22008KT 19/M04 A2966 RMK A01 T01891037  RH  021%=      5-min Rain = 0
KQU1 090140Z 22008KT 19/M04 A2966 RMK A01 T01901037  RH  021%=      5-min Rain = 0
KQU1 090141Z 22008KT 19/M04 A2966 RMK A01 T01901037  RH  021%=      5-min Rain = 0
KQU1 090142Z 22008KT 19/M04 A2966 RMK A01 T01901037  RH  021%=      5-min Rain = 0
KQU1 090143Z 22008KT 19/M04 A2966 RMK A01 T01901037  RH  021%=      5-min Rain = 0
KQU1 090144Z 22008KT 19/M04 A2966 RMK A01 T01891037  RH  021%=      5-min Rain = 0
KQU1 090145Z 22008KT 19/M04 A2966 RMK A01 T01881036  RH  022%=      5-min Rain = 0
KQU1 090146Z 22008KT 19/M04 A2966 RMK A01 T01861035  RH  022%=      5-min Rain = 0
KQU1 090147Z 23008KT 18/M04 A2966 RMK A01 T01841035  RH  022%=      5-min Rain = 0
KQU1 090148Z 23008KT 18/M04 A2966 RMK A01 T01821035  RH  023%=      5-min Rain = 0
KQU1 090149Z 22008KT 18/M04 A2966 RMK A01 T01821035  RH  023%=      5-min Rain = 0
KQU1 090150Z 22007KT 18/M04 A2966 RMK A01 T01811035  RH  023%=      5-min Rain = 0
KQU1 090151Z 22007KT 18/M04 A2966 RMK A01 T01801035  RH  023%=      5-min Rain = 0
KQU1 090152Z 22006KT 18/M04 A2966 RMK A01 T01801035  RH  023%=      5-min Rain = 0
KQU1 090153Z 23007KT 18/M04 A2966 RMK A01 T01801036  RH  023%=      5-min Rain = 0
KQU1 090154Z 23007KT 18/M04 A2966 RMK A01 T01801037  RH  023%=      5-min Rain = 0
KQU1 090155Z 23007KT 18/M04 A2966 RMK A01 T01801037  RH  022%=      5-min Rain = 0
KQU1 090156Z 23007KT 18/M04 A2966 RMK A01 T01811036  RH  023%=      5-min Rain = 0
KQU1 090157Z 23007KT 18/M04 A2966 RMK A01 T01801036  RH  023%=      5-min Rain = 0
KQU1 090158Z 23007KT 18/M04 A2966 RMK A01 T01801036  RH  023%=      5-min Rain = 0
KQU1 090159Z 23008KT 18/M04 A2966 RMK A01 T01801036  RH  023%=      5-min Rain = 0
KQU1 090200Z 23008KT 18/M04 A2966 RMK A01 T01801037  RH  023%=      5-min Rain = 0
KQU1 090201Z 23008KT 18/M04 A2966 RMK A01 T01801037  RH  023%=      5-min Rain = 0
KQU1 090202Z 23008KT 18/M04 A2966 RMK A01 T01811037  RH  022%=      5-min Rain = 0
KQU1 090203Z 23008KT 18/M04 A2966 RMK A01 T01821038  RH  022%=      5-min Rain = 0
KQU1 090204Z 23009KT 18/M04 A2966 RMK A01 T01831038  RH  022%=      5-min Rain = 0
KQU1 090205Z 23008KT 18/M04 A2967 RMK A01 T01841038  RH  022%=      5-min Rain = 0
KQU1 090206Z 23008KT 19/M04 A2967 RMK A01 T01851038  RH  022%=      5-min Rain = 0
KQU1 090207Z 23008KT 19/M04 A2967 RMK A01 T01851038  RH  022%=      5-min Rain = 0
KQU1 090208Z 22007KT 19/M04 A2967 RMK A01 T01851038  RH  022%=      5-min Rain = 0
KQU1 090209Z 22007KT 19/M04 A2967 RMK A01 T01851038  RH  022%=      5-min Rain = 0
KQU1 090210Z 22008KT 19/M04 A2967 RMK A01 T01851038  RH  022%=      5-min Rain = 0
KQU1 090211Z 22008KT 18/M04 A2967 RMK A01 T01841037  RH  022%=      5-min Rain = 0
KQU1 090212Z 22008KT 18/M04 A2967 RMK A01 T01831037  RH  022%=      5-min Rain = 0
KQU1 090213Z 22007KT 18/M04 A2967 RMK A01 T01821037  RH  022%=      5-min Rain = 0
KQU1 090214Z 22007KT 18/M04 A2967 RMK A01 T01811037  RH  022%=      5-min Rain = 0
KQU1 090215Z 22008KT 18/M04 A2967 RMK A01 T01801037  RH  023%=      5-min Rain = 0
KQU1 090216Z 22008KT 18/M04 A2967 RMK A01 T01801037  RH  023%=      5-min Rain = 0
KQU1 090217Z 22008KT 18/M04 A2967 RMK A01 T01791037  RH  023%=      5-min Rain = 0
KQU1 090218Z 22008KT 18/M04 A2967 RMK A01 T01781036  RH  023%=      5-min Rain = 0
KQU1 090219Z 22007KT 18/M04 A2967 RMK A01 T01771037  RH  023%=      5-min Rain = 0
KQU1 090220Z 22008KT 18/M04 A2967 RMK A01 T01761036  RH  023%=      5-min Rain = 0
KQU1 090221Z 22008KT 18/M04 A2967 RMK A01 T01751036  RH  023%=      5-min Rain = 0
KQU1 090222Z 22008KT 18/M04 A2967 RMK A01 T01751037  RH  023%=      5-min Rain = 0
KQU1 090223Z 22008KT 17/M04 A2967 RMK A01 T01741036  RH  023%=      5-min Rain = 0
KQU1 090224Z 23008KT 17/M04 A2967 RMK A01 T01741036  RH  024%=      5-min Rain = 0
KQU1 090225Z 23008KT 17/M04 A2967 RMK A01 T01741036  RH  024%=      5-min Rain = 0
KQU1 090226Z 23008KT 17/M04 A2967 RMK A01 T01741036  RH  024%=      5-min Rain = 0
KQU1 090227Z 23008KT 17/M04 A2967 RMK A01 T01731036  RH  024%=      5-min Rain = 0
KQU1 090228Z 23009KT 17/M04 A2967 RMK A01 T01741036  RH  024%=      5-min Rain = 0
KQU1 090229Z 23009KT 17/M04 A2967 RMK A01 T01741037  RH  024%=      5-min Rain = 0
KQU1 090230Z 23009KT 17/M04 A2967 RMK A01 T01741037  RH  023%=      5-min Rain = 0
KQU1 090231Z 23009KT 18/M04 A2967 RMK A01 T01751037  RH  023%=      5-min Rain = 0
KQU1 090232Z 23009KT 18/M04 A2967 RMK A01 T01761038  RH  023%=      5-min Rain = 0
KQU1 090233Z 23009KT 18/M04 A2967 RMK A01 T01761037  RH  023%=      5-min Rain = 0
KQU1 090234Z 23009KT 18/M04 A2967 RMK A01 T01771037  RH  023%=      5-min Rain = 0
KQU1 090235Z 23010KT 18/M04 A2967 RMK A01 T01771037  RH  023%=      5-min Rain = 0
KQU1 090236Z 24010KT 18/M04 A2967 RMK A01 T01771037  RH  023%=      5-min Rain = 0
KQU1 090237Z 24010KT 18/M04 A2967 RMK A01 T01771037  RH  023%=      5-min Rain = 0
KQU1 090238Z 24010KT 18/M04 A2967 RMK A01 T01771037  RH  023%=      5-min Rain = 0
KQU1 090239Z 24010KT 18/M04 A2967 RMK A01 T01771037  RH  023%=      5-min Rain = 0
KQU1 090240Z 24011KT 18/M04 A2967 RMK A01 T01771037  RH  023%=      5-min Rain = 0
KQU1 090241Z 24011KT 18/M04 A2967 RMK A01 T01771037  RH  023%=      5-min Rain = 0
KQU1 090242Z 24011KT 18/M04 A2967 RMK A01 T01771037  RH  023%=      5-min Rain = 0
KQU1 090243Z 24010KT 18/M04 A2967 RMK A01 T01781037  RH  023%=      5-min Rain = 0
KQU1 090244Z 24010KT 18/M04 A2967 RMK A01 T01781037  RH  023%=      5-min Rain = 0
KQU1 090245Z 24010KT 18/M04 A2967 RMK A01 T01791037  RH  023%=      5-min Rain = 0
KQU1 090246Z 24010KT 18/M04 A2967 RMK A01 T01791037  RH  023%=      5-min Rain = 0
KQU1 090247Z 24010KT 18/M04 A2967 RMK A01 T01791036  RH  023%=      5-min Rain = 0
KQU1 090248Z 24010KT 18/M04 A2967 RMK A01 T01791036  RH  023%=      5-min Rain = 0
KQU1 090249Z 24010KT 18/M04 A2967 RMK A01 T01801036  RH  023%=      5-min Rain = 0
KQU1 090250Z 24010KT 18/M04 A2967 RMK A01 T01801036  RH  023%=      5-min Rain = 0
KQU1 090251Z 24010KT 18/M04 A2967 RMK A01 T01801035  RH  023%=      5-min Rain = 0
KQU1 090252Z 24010KT 18/M04 A2967 RMK A01 T01801035  RH  023%=      5-min Rain = 0
KQU1 090253Z 24010KT 18/M04 A2967 RMK A01 T01801035  RH  023%=      5-min Rain = 0
KQU1 090254Z 24010KT 18/M04 A2967 RMK A01 T01811035  RH  023%=      5-min Rain = 0
KQU1 090255Z 24010KT 18/M04 A2967 RMK A01 T01811035  RH  023%=      5-min Rain = 0
KQU1 090256Z 24010KT 18/M04 A2967 RMK A01 T01811035  RH  023%=      5-min Rain = 0
KQU1 090257Z 24010KT 18/M04 A2967 RMK A01 T01811035  RH  023%=      5-min Rain = 0
KQU1 090258Z 24009KT 18/M04 A2967 RMK A01 T01821035  RH  023%=      5-min Rain = 0
KQU1 090259Z 24009KT 18/M04 A2967 RMK A01 T01811035  RH  023%=      5-min Rain = 0
KQU1 090300Z 23009KT 18/M03 A2967 RMK A01 T01811034  RH  023%=      5-min Rain = 0
KQU1 090301Z 23007KT 18/M03 A2967 RMK A01 T01811033  RH  023%=      5-min Rain = 0
KQU1 090302Z 21004KT 18/M03 A2967 RMK A01 T01791029  RH  024%=      5-min Rain = 0
KQU1 090303Z 19004KT 17/M03 A2967 RMK A01 T01741029  RH  025%=      5-min Rain = 0
KQU1 090304Z 20005KT 17/M03 A2967 RMK A01 T01691031  RH  025%=      5-min Rain = 0
KQU1 090305Z 23005KT 17/M03 A2967 RMK A01 T01671031  RH  026%=      5-min Rain = 0
KQU1 090306Z 23007KT 17/M03 A2967 RMK A01 T01661032  RH  026%=      5-min Rain = 0
KQU1 090307Z 24008KT 17/M03 A2967 RMK A01 T01661032  RH  026%=      5-min Rain = 0
KQU1 090308Z 23007KT 17/M03 A2968 RMK A01 T01661032  RH  026%=      5-min Rain = 0
KQU1 090309Z 24007KT 16/M03 A2967 RMK A01 T01641030  RH  026%=      5-min Rain = 0
KQU1 090310Z 24008KT 16/M03 A2967 RMK A01 T01621028  RH  027%=      5-min Rain = 0
KQU1 090311Z 24008KT 16/M03 A2967 RMK A01 T01591028  RH  027%=      5-min Rain = 0
KQU1 090312Z 24008KT 16/M03 A2967 RMK A01 T01581029  RH  028%=      5-min Rain = 0
KQU1 090313Z 24009KT 16/M03 A2967 RMK A01 T01591031  RH  027%=      5-min Rain = 0
KQU1 090314Z 24009KT 16/M03 A2967 RMK A01 T01631032  RH  026%=      5-min Rain = 0
KQU1 090315Z 24009KT 17/M03 A2967 RMK A01 T01661032  RH  026%=      5-min Rain = 0
KQU1 090316Z 24009KT 17/M03 A2967 RMK A01 T01681032  RH  025%=      5-min Rain = 0
KQU1 090317Z 24009KT 17/M03 A2967 RMK A01 T01701032  RH  025%=      5-min Rain = 0
KQU1 090318Z 24009KT 17/M03 A2967 RMK A01 T01721031  RH  025%=      5-min Rain = 0
KQU1 090319Z 24009KT 17/M03 A2967 RMK A01 T01731031  RH  025%=      5-min Rain = 0
KQU1 090320Z 24010KT 17/M03 A2967 RMK A01 T01731031  RH  025%=      5-min Rain = 0
KQU1 090321Z 24011KT 17/M03 A2967 RMK A01 T01731030  RH  025%=      5-min Rain = 0
KQU1 090322Z 24011KT 17/M03 A2968 RMK A01 T01721031  RH  025%=      5-min Rain = 0
KQU1 090323Z 24011KT 17/M03 A2968 RMK A01 T01731031  RH  025%=      5-min Rain = 0
KQU1 090324Z 24011KT 17/M03 A2968 RMK A01 T01741031  RH  025%=      5-min Rain = 0
KQU1 090325Z 24011KT 17/M03 A2967 RMK A01 T01741032  RH  024%=      5-min Rain = 0
KQU1 090326Z 23010KT 18/M03 A2967 RMK A01 T01751032  RH  024%=      5-min Rain = 0
KQU1 090327Z 23009KT 18/M03 A2967 RMK A01 T01761032  RH  024%=      5-min Rain = 0
KQU1 090328Z 23010KT 18/M03 A2967 RMK A01 T01761031  RH  024%=      5-min Rain = 0
KQU1 090329Z 23010KT 18/M03 A2967 RMK A01 T01751031  RH  024%=      5-min Rain = 0
KQU1 090330Z 24010KT 17/M03 A2967 RMK A01 T01741030  RH  025%=      5-min Rain = 0
KQU1 090331Z 24008KT 17/M03 A2967 RMK A01 T01731030  RH  025%=      5-min Rain = 0
KQU1 090332Z 23005KT 17/M03 A2967 RMK A01 T01721027  RH  026%=      5-min Rain = 0
KQU1 090333Z 23006KT 17/M03 A2967 RMK A01 T01681026  RH  026%=      5-min Rain = 0
KQU1 090334Z 24006KT 16/M03 A2967 RMK A01 T01641026  RH  027%=      5-min Rain = 0
KQU1 090335Z 24008KT 16/M03 A2967 RMK A01 T01611025  RH  028%=      5-min Rain = 0
KQU1 090336Z 23007KT 16/M03 A2967 RMK A01 T01591026  RH  028%=      5-min Rain = 0
KQU1 090337Z 23006KT 16/M03 A2967 RMK A01 T01561025  RH  029%=      5-min Rain = 0
KQU1 090338Z 23007KT 16/M03 A2967 RMK A01 T01551025  RH  029%=      5-min Rain = 0
KQU1 090339Z 23009KT 16/M03 A2967 RMK A01 T01551028  RH  028%=      5-min Rain = 0
KQU1 090340Z 23010KT 16/M03 A2967 RMK A01 T01591029  RH  027%=      5-min Rain = 0
KQU1 090341Z 23011KT 16/M03 A2967 RMK A01 T01621030  RH  027%=      5-min Rain = 0
KQU1 090342Z 22012KT 17/M03 A2967 RMK A01 T01651031  RH  026%=      5-min Rain = 0
KQU1 090343Z 22012KT 17/M03 A2967 RMK A01 T01681031  RH  025%=      5-min Rain = 0
KQU1 090344Z 22012KT 17/M03 A2967 RMK A01 T01701031  RH  025%=      5-min Rain = 0
KQU1 090345Z 21012KT 17/M03 A2967 RMK A01 T01711030  RH  025%=      5-min Rain = 0
KQU1 090346Z 21011KT 17/M03 A2967 RMK A01 T01721030  RH  025%=      5-min Rain = 0
KQU1 090347Z 20010KT 17/M03 A2967 RMK A01 T01731030  RH  025%=      5-min Rain = 0
KQU1 090348Z 20008KT 17/M03 A2967 RMK A01 T01741030  RH  025%=      5-min Rain = 0
KQU1 090349Z 21008KT 17/M03 A2967 RMK A01 T01741029  RH  025%=      5-min Rain = 0
KQU1 090350Z 21008KT 18/M03 A2967 RMK A01 T01751030  RH  025%=      5-min Rain = 0
KQU1 090351Z 22009KT 18/M03 A2967 RMK A01 T01751029  RH  025%=      5-min Rain = 0
KQU1 090352Z 22010KT 18/M03 A2967 RMK A01 T01751031  RH  024%=      5-min Rain = 0
KQU1 090353Z 21010KT 18/M03 A2967 RMK A01 T01751031  RH  024%=      5-min Rain = 0
KQU1 090354Z 21009KT 18/M03 A2967 RMK A01 T01761031  RH  024%=      5-min Rain = 0
KQU1 090355Z 21009KT 18/M03 A2966 RMK A01 T01771032  RH  024%=      5-min Rain = 0
KQU1 090356Z 21009KT 18/M03 A2966 RMK A01 T01781033  RH  024%=      5-min Rain = 0
KQU1 090357Z 21011KT 18/M04 A2967 RMK A01 T01811037  RH  022%=      5-min Rain = 0
KQU1 090358Z 21011KT 19/M04 A2967 RMK A01 T01851037  RH  022%=      5-min Rain = 0
KQU1 090359Z 21011KT 19/M04 A2967 RMK A01 T01871037  RH  022%=      5-min Rain = 0
KQU1 090400Z 21011KT 19/M04 A2967 RMK A01 T01881039  RH  021%=      5-min Rain = 0
KQU1 090401Z 21012KT 19/M04 A2967 RMK A01 T01911040  RH  021%=      5-min Rain = 0
KQU1 090402Z 23009KT 19/M04 A2967 RMK A01 T01921038  RH  021%=      5-min Rain = 0
KQU1 090403Z 22007KT 19/M04 A2967 RMK A01 T01911035  RH  021%=      5-min Rain = 0
KQU1 090404Z 20007KT 19/M04 A2967 RMK A01 T01891037  RH  021%=      5-min Rain = 0
KQU1 090405Z 21006KT 19/M04 A2967 RMK A01 T01881036  RH  022%=      5-min Rain = 0
KQU1 090406Z 22007KT 19/M04 A2967 RMK A01 T01881038  RH  021%=      5-min Rain = 0
KQU1 090407Z 24007KT 19/M04 A2967 RMK A01 T01881038  RH  021%=      5-min Rain = 0
KQU1 090408Z 25007KT 19/M04 A2967 RMK A01 T01881038  RH  021%=      5-min Rain = 0
KQU1 090409Z 25007KT 19/M04 A2967 RMK A01 T01881039  RH  021%=      5-min Rain = 0
KQU1 090410Z 24008KT 19/M04 A2967 RMK A01 T01881038  RH  021%=      5-min Rain = 0
KQU1 090411Z 24010KT 19/M04 A2967 RMK A01 T01881037  RH  021%=      5-min Rain = 0
KQU1 090412Z 23009KT 19/M04 A2967 RMK A01 T01871037  RH  022%=      5-min Rain = 0
KQU1 090413Z 22009KT 19/M04 A2966 RMK A01 T01861038  RH  022%=      5-min Rain = 0
KQU1 090414Z 20009KT 19/M04 A2966 RMK A01 T01871042  RH  021%=      5-min Rain = 0
KQU1 090415Z 19010KT 19/M04 A2966 RMK A01 T01891042  RH  021%=      5-min Rain = 0
KQU1 090416Z 20010KT 19/M04 A2966 RMK A01 T01911042  RH  020%=      5-min Rain = 0
KQU1 090417Z 21009KT 19/M04 A2966 RMK A01 T01921042  RH  020%=      5-min Rain = 0
KQU1 090418Z 23008KT 19/M04 A2966 RMK A01 T01931043  RH  020%=      5-min Rain = 0
KQU1 090419Z 24008KT 19/M04 A2965 RMK A01 T01931040  RH  020%=      5-min Rain = 0
KQU1 090420Z 22010KT 19/M05 A2965 RMK A01 T01931045  RH  020%=      5-min Rain = 0
KQU1 090421Z 21010KT 19/M04 A2965 RMK A01 T01941042  RH  020%=      5-min Rain = 0
KQU1 090422Z 20011KT 19/M04 A2965 RMK A01 T01931041  RH  020%=      5-min Rain = 0
KQU1 090423Z 21013KT 19/M04 A2965 RMK A01 T01931043  RH  020%=      5-min Rain = 0
KQU1 090424Z 21013KT 19/M04 A2965 RMK A01 T01931043  RH  020%=      5-min Rain = 0
KQU1 090425Z 22013KT 19/M04 A2965 RMK A01 T01931042  RH  020%=      5-min Rain = 0
KQU1 090426Z 21014KT 19/M04 A2966 RMK A01 T01921041  RH  020%=      5-min Rain = 0
KQU1 090427Z 21013KT 19/M04 A2966 RMK A01 T01901041  RH  021%=      5-min Rain = 0
KQU1 090428Z 21014KT 19/M04 A2966 RMK A01 T01901043  RH  020%=      5-min Rain = 0
KQU1 090429Z 21014KT 19/M04 A2966 RMK A01 T01911043  RH  020%=      5-min Rain = 0
KQU1 090430Z 21016KT 19/M04 A2965 RMK A01 T01901044  RH  020%=      5-min Rain = 0
KQU1 090431Z 21015KT 19/M05 A2965 RMK A01 T01921045  RH  020%=      5-min Rain = 0
KQU1 090432Z 21015KT 19/M05 A2965 RMK A01 T01921045  RH  020%=      5-min Rain = 0
KQU1 090433Z 21015KT 19/M05 A2965 RMK A01 T01931047  RH  019%=      5-min Rain = 0
KQU1 090434Z 21013KT 20/M05 A2965 RMK A01 T01951048  RH  019%=      5-min Rain = 0
KQU1 090435Z 21012KT 20/M05 A2965 RMK A01 T01951049  RH  019%=      5-min Rain = 0
KQU1 090436Z 21013KT 20/M05 A2965 RMK A01 T01961050  RH  019%=      5-min Rain = 0
KQU1 090437Z 20013KT 20/M05 A2965 RMK A01 T01971052  RH  018%=      5-min Rain = 0
KQU1 090438Z 21014G20KT 20/M05 A2965 RMK A01 T01991052  RH  018%=      5-min Rain = 0
KQU1 090439Z 22018KT 20/M05 A2965 RMK A01 T02021054  RH  017%=      5-min Rain = 0
KQU1 090440Z 22016KT 20/M06 A2965 RMK A01 T02041055  RH  017%=      5-min Rain = 0
KQU1 090441Z 22017KT 21/M06 A2965 RMK A01 T02051055  RH  017%=      5-min Rain = 0
KQU1 090442Z 22016KT 21/M06 A2965 RMK A01 T02061055  RH  017%=      5-min Rain = 0
KQU1 090443Z 22014KT 21/M05 A2965 RMK A01 T02061054  RH  017%=      5-min Rain = 0
KQU1 090444Z 22013KT 21/M05 A2965 RMK A01 T02061053  RH  017%=      5-min Rain = 0
KQU1 090445Z 22014G20KT 21/M05 A2965 RMK A01 T02051053  RH  017%=      5-min Rain = 0
KQU1 090446Z 23016G21KT 20/M05 A2966 RMK A01 T02041053  RH  017%=      5-min Rain = 0
KQU1 090447Z 23019G24KT 21/M05 A2966 RMK A01 T02051054  RH  017%=      5-min Rain = 0
KQU1 090448Z 22017KT 21/M06 A2966 RMK A01 T02061055  RH  017%=      5-min Rain = 0
KQU1 090449Z 22016KT 21/M05 A2965 RMK A01 T02071054  RH  017%=      5-min Rain = 0
KQU1 090450Z 22015KT 21/M05 A2965 RMK A01 T02071053  RH  017%=      5-min Rain = 0
KQU1 090451Z 23016KT 21/M05 A2966 RMK A01 T02071053  RH  017%=      5-min Rain = 0
KQU1 090452Z 23017KT 21/M05 A2966 RMK A01 T02071054  RH  017%=      5-min Rain = 0
KQU1 090453Z 23015KT 21/M05 A2966 RMK A01 T02071053  RH  017%=      5-min Rain = 0
KQU1 090454Z 23013KT 21/M05 A2966 RMK A01 T02071052  RH  017%=      5-min Rain = 0
KQU1 090455Z 24012KT 21/M05 A2966 RMK A01 T02061053  RH  017%=      5-min Rain = 0
KQU1 090456Z 23010KT 21/M05 A2965 RMK A01 T02061051  RH  017%=      5-min Rain = 0
KQU1 090457Z 25012KT 21/M05 A2966 RMK A01 T02051050  RH  017%=      5-min Rain = 0
KQU1 090458Z 26015KT 20/M05 A2967 RMK A01 T02031051  RH  018%=      5-min Rain = 0
KQU1 090459Z 25017KT 20/M05 A2967 RMK A01 T02031051  RH  017%=      5-min Rain = 0

Page generated in 0.0654 seconds.